<?xml version="1.0" encoding="UTF-8" standalone="yes"?>
<gpx xmlns="http://www.topografix.com/GPX/1/1" xmlns:xsi="http://www.w3.org/2001/XMLSchema-instance" version="1.1" creator="MagicMaps Tour Explorer" xsi:schemaLocation="http://www.topografix.com/GPX/1/1 http://www.topografix.com/GPX/1/1/gpx.xsd">
  <trk>
    <name>hirschberg_s1</name>
    <trkseg>
      <trkpt lat="47.659129445" lon="11.740737129">
        <ele>784.6</ele>
        <time>2020-09-20T05:30:31Z</time>
      </trkpt>
      <trkpt lat="47.659155345" lon="11.740738470">
        <ele>784.6</ele>
        <time>2020-09-20T05:30:32Z</time>
      </trkpt>
      <trkpt lat="47.659205133" lon="11.740789264">
        <ele>784.1</ele>
        <time>2020-09-20T05:30:58Z</time>
      </trkpt>
      <trkpt lat="47.659177473" lon="11.740795467">
        <ele>784.1</ele>
        <time>2020-09-20T05:31:57Z</time>
      </trkpt>
      <trkpt lat="47.659118045" lon="11.740673007">
        <ele>784.6</ele>
        <time>2020-09-20T05:32:11Z</time>
      </trkpt>
      <trkpt lat="47.659096001" lon="11.740455497">
        <ele>787.0</ele>
        <time>2020-09-20T05:32:59Z</time>
      </trkpt>
      <trkpt lat="47.659048727" lon="11.740470165">
        <ele>787.0</ele>
        <time>2020-09-20T05:33:03Z</time>
      </trkpt>
      <trkpt lat="47.658934565" lon="11.740437308">
        <ele>787.0</ele>
        <time>2020-09-20T05:33:21Z</time>
      </trkpt>
      <trkpt lat="47.658686293" lon="11.740413085">
        <ele>787.9</ele>
        <time>2020-09-20T05:33:42Z</time>
      </trkpt>
      <trkpt lat="47.658493845" lon="11.740428507">
        <ele>790.3</ele>
        <time>2020-09-20T05:34:01Z</time>
      </trkpt>
      <trkpt lat="47.658184217" lon="11.740505286">
        <ele>795.6</ele>
        <time>2020-09-20T05:35:00Z</time>
      </trkpt>
      <trkpt lat="47.657980034" lon="11.740478883">
        <ele>797.5</ele>
        <time>2020-09-20T05:35:19Z</time>
      </trkpt>
      <trkpt lat="47.657883558" lon="11.740440661">
        <ele>799.0</ele>
        <time>2020-09-20T05:35:29Z</time>
      </trkpt>
      <trkpt lat="47.657765038" lon="11.740350556">
        <ele>800.4</ele>
        <time>2020-09-20T05:35:43Z</time>
      </trkpt>
      <trkpt lat="47.657368910" lon="11.739938417">
        <ele>806.7</ele>
        <time>2020-09-20T05:36:29Z</time>
      </trkpt>
      <trkpt lat="47.657208564" lon="11.739798859">
        <ele>809.6</ele>
        <time>2020-09-20T05:36:48Z</time>
      </trkpt>
      <trkpt lat="47.656847555" lon="11.739635495">
        <ele>815.8</ele>
        <time>2020-09-20T05:37:25Z</time>
      </trkpt>
      <trkpt lat="47.656725179" lon="11.739482861">
        <ele>818.2</ele>
        <time>2020-09-20T05:37:42Z</time>
      </trkpt>
      <trkpt lat="47.656645551" lon="11.739090337">
        <ele>823.0</ele>
        <time>2020-09-20T05:38:18Z</time>
      </trkpt>
      <trkpt lat="47.656633817" lon="11.738895038">
        <ele>825.9</ele>
        <time>2020-09-20T05:38:35Z</time>
      </trkpt>
      <trkpt lat="47.656494006" lon="11.738075959">
        <ele>837.0</ele>
        <time>2020-09-20T05:39:46Z</time>
      </trkpt>
      <trkpt lat="47.656457713" lon="11.737734145">
        <ele>843.2</ele>
        <time>2020-09-20T05:40:18Z</time>
      </trkpt>
      <trkpt lat="47.656350089" lon="11.737032160">
        <ele>855.2</ele>
        <time>2020-09-20T05:41:28Z</time>
      </trkpt>
      <trkpt lat="47.656311281" lon="11.736709960">
        <ele>861.5</ele>
        <time>2020-09-20T05:42:02Z</time>
      </trkpt>
      <trkpt lat="47.656340031" lon="11.736595463">
        <ele>864.4</ele>
        <time>2020-09-20T05:42:27Z</time>
      </trkpt>
      <trkpt lat="47.656413456" lon="11.736520194">
        <ele>866.8</ele>
        <time>2020-09-20T05:42:42Z</time>
      </trkpt>
      <trkpt lat="47.656350592" lon="11.736383569">
        <ele>869.6</ele>
        <time>2020-09-20T05:43:01Z</time>
      </trkpt>
      <trkpt lat="47.656268030" lon="11.736109229">
        <ele>874.5</ele>
        <time>2020-09-20T05:43:33Z</time>
      </trkpt>
      <trkpt lat="47.656243220" lon="11.735673538">
        <ele>883.6</ele>
        <time>2020-09-20T05:44:26Z</time>
      </trkpt>
      <trkpt lat="47.656205920" lon="11.735534482">
        <ele>887.0</ele>
        <time>2020-09-20T05:44:44Z</time>
      </trkpt>
      <trkpt lat="47.656201562" lon="11.735432474">
        <ele>889.4</ele>
        <time>2020-09-20T05:45:00Z</time>
      </trkpt>
      <trkpt lat="47.656163508" lon="11.735234661">
        <ele>893.2</ele>
        <time>2020-09-20T05:45:31Z</time>
      </trkpt>
      <trkpt lat="47.656180775" lon="11.735142628">
        <ele>895.6</ele>
        <time>2020-09-20T05:45:45Z</time>
      </trkpt>
      <trkpt lat="47.656169878" lon="11.734869294">
        <ele>901.4</ele>
        <time>2020-09-20T05:46:19Z</time>
      </trkpt>
      <trkpt lat="47.656146493" lon="11.734687993">
        <ele>904.3</ele>
        <time>2020-09-20T05:46:39Z</time>
      </trkpt>
      <trkpt lat="47.656181445" lon="11.734587997">
        <ele>907.1</ele>
        <time>2020-09-20T05:46:57Z</time>
      </trkpt>
      <trkpt lat="47.656183960" lon="11.734475009">
        <ele>909.1</ele>
        <time>2020-09-20T05:47:14Z</time>
      </trkpt>
      <trkpt lat="47.656215727" lon="11.734353220">
        <ele>912.0</ele>
        <time>2020-09-20T05:47:31Z</time>
      </trkpt>
      <trkpt lat="47.656257302" lon="11.734270155">
        <ele>914.4</ele>
        <time>2020-09-20T05:47:45Z</time>
      </trkpt>
      <trkpt lat="47.656285046" lon="11.733921301">
        <ele>922.5</ele>
        <time>2020-09-20T05:48:52Z</time>
      </trkpt>
      <trkpt lat="47.656367524" lon="11.733785598">
        <ele>925.4</ele>
        <time>2020-09-20T05:49:22Z</time>
      </trkpt>
      <trkpt lat="47.656401722" lon="11.733534057">
        <ele>931.2</ele>
        <time>2020-09-20T05:49:56Z</time>
      </trkpt>
      <trkpt lat="47.656500544" lon="11.733159134">
        <ele>940.8</ele>
        <time>2020-09-20T05:50:46Z</time>
      </trkpt>
      <trkpt lat="47.656605067" lon="11.732795946">
        <ele>949.9</ele>
        <time>2020-09-20T05:51:33Z</time>
      </trkpt>
      <trkpt lat="47.656689724" lon="11.732558655">
        <ele>956.2</ele>
        <time>2020-09-20T05:52:04Z</time>
      </trkpt>
      <trkpt lat="47.656732053" lon="11.732334103">
        <ele>962.4</ele>
        <time>2020-09-20T05:52:34Z</time>
      </trkpt>
      <trkpt lat="47.656829702" lon="11.732192785">
        <ele>968.2</ele>
        <time>2020-09-20T05:53:09Z</time>
      </trkpt>
      <trkpt lat="47.656911928" lon="11.731911739">
        <ele>974.4</ele>
        <time>2020-09-20T05:53:43Z</time>
      </trkpt>
      <trkpt lat="47.656955095" lon="11.731826998">
        <ele>977.3</ele>
        <time>2020-09-20T05:53:56Z</time>
      </trkpt>
      <trkpt lat="47.657039752" lon="11.731433719">
        <ele>986.5</ele>
        <time>2020-09-20T05:54:46Z</time>
      </trkpt>
      <trkpt lat="47.657082751" lon="11.731308410">
        <ele>989.8</ele>
        <time>2020-09-20T05:55:03Z</time>
      </trkpt>
      <trkpt lat="47.657094402" lon="11.731177317">
        <ele>992.7</ele>
        <time>2020-09-20T05:55:20Z</time>
      </trkpt>
      <trkpt lat="47.657044698" lon="11.730786134">
        <ele>1002.8</ele>
        <time>2020-09-20T05:56:05Z</time>
      </trkpt>
      <trkpt lat="47.657101778" lon="11.730672726">
        <ele>1005.7</ele>
        <time>2020-09-20T05:56:20Z</time>
      </trkpt>
      <trkpt lat="47.657163721" lon="11.730616735">
        <ele>1007.6</ele>
        <time>2020-09-20T05:56:30Z</time>
      </trkpt>
      <trkpt lat="47.657280313" lon="11.730679516">
        <ele>1011.0</ele>
        <time>2020-09-20T05:56:48Z</time>
      </trkpt>
      <trkpt lat="47.657355163" lon="11.730385143">
        <ele>1021.1</ele>
        <time>2020-09-20T05:57:26Z</time>
      </trkpt>
      <trkpt lat="47.657389780" lon="11.730307695">
        <ele>1024.4</ele>
        <time>2020-09-20T05:57:38Z</time>
      </trkpt>
      <trkpt lat="47.657517772" lon="11.730158916">
        <ele>1030.2</ele>
        <time>2020-09-20T05:58:06Z</time>
      </trkpt>
      <trkpt lat="47.657604776" lon="11.730125975">
        <ele>1033.5</ele>
        <time>2020-09-20T05:58:21Z</time>
      </trkpt>
      <trkpt lat="47.657654397" lon="11.730041988">
        <ele>1036.4</ele>
        <time>2020-09-20T05:58:36Z</time>
      </trkpt>
      <trkpt lat="47.657726565" lon="11.729871165">
        <ele>1042.7</ele>
        <time>2020-09-20T05:59:06Z</time>
      </trkpt>
      <trkpt lat="47.657708796" lon="11.729655415">
        <ele>1048.9</ele>
        <time>2020-09-20T05:59:39Z</time>
      </trkpt>
      <trkpt lat="47.657813067" lon="11.729527507">
        <ele>1056.6</ele>
        <time>2020-09-20T06:00:32Z</time>
      </trkpt>
      <trkpt lat="47.657892946" lon="11.729489118">
        <ele>1057.6</ele>
        <time>2020-09-20T06:00:50Z</time>
      </trkpt>
      <trkpt lat="47.657912560" lon="11.729386607">
        <ele>1060.5</ele>
        <time>2020-09-20T06:01:07Z</time>
      </trkpt>
      <trkpt lat="47.658036109" lon="11.729368419">
        <ele>1064.8</ele>
        <time>2020-09-20T06:01:34Z</time>
      </trkpt>
      <trkpt lat="47.658278514" lon="11.729224333">
        <ele>1076.3</ele>
        <time>2020-09-20T06:02:42Z</time>
      </trkpt>
      <trkpt lat="47.658296954" lon="11.729136072">
        <ele>1079.2</ele>
        <time>2020-09-20T06:02:57Z</time>
      </trkpt>
      <trkpt lat="47.658293769" lon="11.729013361">
        <ele>1082.6</ele>
        <time>2020-09-20T06:03:15Z</time>
      </trkpt>
      <trkpt lat="47.658354035" lon="11.728982767">
        <ele>1085.5</ele>
        <time>2020-09-20T06:03:31Z</time>
      </trkpt>
      <trkpt lat="47.658402398" lon="11.728839353">
        <ele>1090.3</ele>
        <time>2020-09-20T06:03:56Z</time>
      </trkpt>
      <trkpt lat="47.658404242" lon="11.728663836">
        <ele>1096.0</ele>
        <time>2020-09-20T06:04:25Z</time>
      </trkpt>
      <trkpt lat="47.658435842" lon="11.728607006">
        <ele>1098.4</ele>
        <time>2020-09-20T06:04:39Z</time>
      </trkpt>
      <trkpt lat="47.658437015" lon="11.728422772">
        <ele>1104.2</ele>
        <time>2020-09-20T06:05:11Z</time>
      </trkpt>
      <trkpt lat="47.658500131" lon="11.728378851">
        <ele>1107.6</ele>
        <time>2020-09-20T06:05:28Z</time>
      </trkpt>
      <trkpt lat="47.658526450" lon="11.728227474">
        <ele>1112.9</ele>
        <time>2020-09-20T06:05:58Z</time>
      </trkpt>
      <trkpt lat="47.658515638" lon="11.728125215">
        <ele>1115.8</ele>
        <time>2020-09-20T06:06:16Z</time>
      </trkpt>
      <trkpt lat="47.658546735" lon="11.727873255">
        <ele>1124.4</ele>
        <time>2020-09-20T06:07:02Z</time>
      </trkpt>
      <trkpt lat="47.658574143" lon="11.727795135">
        <ele>1127.3</ele>
        <time>2020-09-20T06:07:19Z</time>
      </trkpt>
      <trkpt lat="47.658556961" lon="11.727724392">
        <ele>1130.2</ele>
        <time>2020-09-20T06:07:33Z</time>
      </trkpt>
      <trkpt lat="47.658582442" lon="11.727664042">
        <ele>1132.6</ele>
        <time>2020-09-20T06:07:48Z</time>
      </trkpt>
      <trkpt lat="47.658629632" lon="11.727614254">
        <ele>1135.5</ele>
        <time>2020-09-20T06:08:01Z</time>
      </trkpt>
      <trkpt lat="47.658601049" lon="11.727541667">
        <ele>1138.3</ele>
        <time>2020-09-20T06:08:16Z</time>
      </trkpt>
      <trkpt lat="47.658566348" lon="11.727349469">
        <ele>1143.6</ele>
        <time>2020-09-20T06:08:50Z</time>
      </trkpt>
      <trkpt lat="47.658687048" lon="11.727261879">
        <ele>1149.4</ele>
        <time>2020-09-20T06:09:22Z</time>
      </trkpt>
      <trkpt lat="47.658666428" lon="11.727161212">
        <ele>1152.3</ele>
        <time>2020-09-20T06:09:40Z</time>
      </trkpt>
      <trkpt lat="47.658520583" lon="11.726885783">
        <ele>1161.4</ele>
        <time>2020-09-20T06:10:28Z</time>
      </trkpt>
      <trkpt lat="47.658474483" lon="11.726713953">
        <ele>1167.7</ele>
        <time>2020-09-20T06:11:01Z</time>
      </trkpt>
      <trkpt lat="47.658358142" lon="11.726552769">
        <ele>1173.9</ele>
        <time>2020-09-20T06:11:33Z</time>
      </trkpt>
      <trkpt lat="47.658242052" lon="11.726270886">
        <ele>1183.0</ele>
        <time>2020-09-20T06:12:22Z</time>
      </trkpt>
      <trkpt lat="47.658052789" lon="11.726073660">
        <ele>1190.2</ele>
        <time>2020-09-20T06:13:09Z</time>
      </trkpt>
      <trkpt lat="47.657909123" lon="11.726030242">
        <ele>1191.7</ele>
        <time>2020-09-20T06:13:27Z</time>
      </trkpt>
      <trkpt lat="47.657815414" lon="11.725951871">
        <ele>1192.7</ele>
        <time>2020-09-20T06:13:40Z</time>
      </trkpt>
      <trkpt lat="47.657796303" lon="11.725946674">
        <ele>1192.7</ele>
        <time>2020-09-20T06:14:00Z</time>
      </trkpt>
      <trkpt lat="47.657764535" lon="11.726015657">
        <ele>1201.8</ele>
        <time>2020-09-20T06:16:39Z</time>
      </trkpt>
      <trkpt lat="47.657738468" lon="11.725988500">
        <ele>1201.8</ele>
        <time>2020-09-20T06:19:30Z</time>
      </trkpt>
      <trkpt lat="47.657750538" lon="11.726033091">
        <ele>1201.8</ele>
        <time>2020-09-20T06:19:43Z</time>
      </trkpt>
      <trkpt lat="47.657766966" lon="11.726041138">
        <ele>1201.8</ele>
        <time>2020-09-20T06:20:02Z</time>
      </trkpt>
      <trkpt lat="47.657780210" lon="11.725987326">
        <ele>1201.8</ele>
        <time>2020-09-20T06:20:09Z</time>
      </trkpt>
      <trkpt lat="47.657713657" lon="11.725759842">
        <ele>1204.7</ele>
        <time>2020-09-20T06:20:26Z</time>
      </trkpt>
      <trkpt lat="47.657545935" lon="11.725355331">
        <ele>1209.0</ele>
        <time>2020-09-20T06:20:57Z</time>
      </trkpt>
      <trkpt lat="47.657516599" lon="11.725134635">
        <ele>1210.4</ele>
        <time>2020-09-20T06:21:13Z</time>
      </trkpt>
      <trkpt lat="47.657663198" lon="11.724876389">
        <ele>1213.3</ele>
        <time>2020-09-20T06:21:38Z</time>
      </trkpt>
      <trkpt lat="47.657711059" lon="11.724670194">
        <ele>1216.2</ele>
        <time>2020-09-20T06:21:55Z</time>
      </trkpt>
      <trkpt lat="47.657658504" lon="11.724478332">
        <ele>1219.1</ele>
        <time>2020-09-20T06:22:11Z</time>
      </trkpt>
      <trkpt lat="47.657575607" lon="11.724299379">
        <ele>1222.0</ele>
        <time>2020-09-20T06:22:28Z</time>
      </trkpt>
      <trkpt lat="47.657468654" lon="11.723966030">
        <ele>1226.3</ele>
        <time>2020-09-20T06:22:57Z</time>
      </trkpt>
      <trkpt lat="47.657402940" lon="11.723491950">
        <ele>1232.1</ele>
        <time>2020-09-20T06:23:38Z</time>
      </trkpt>
      <trkpt lat="47.657410903" lon="11.723011416">
        <ele>1237.3</ele>
        <time>2020-09-20T06:24:12Z</time>
      </trkpt>
      <trkpt lat="47.657372178" lon="11.722762054">
        <ele>1239.3</ele>
        <time>2020-09-20T06:24:30Z</time>
      </trkpt>
      <trkpt lat="47.657394391" lon="11.721882457">
        <ele>1247.5</ele>
        <time>2020-09-20T06:25:29Z</time>
      </trkpt>
      <trkpt lat="47.657365138" lon="11.721340399">
        <ele>1253.2</ele>
        <time>2020-09-20T06:26:10Z</time>
      </trkpt>
      <trkpt lat="47.657368993" lon="11.720875874">
        <ele>1259.0</ele>
        <time>2020-09-20T06:26:49Z</time>
      </trkpt>
      <trkpt lat="47.657322055" lon="11.720423838">
        <ele>1264.8</ele>
        <time>2020-09-20T06:27:26Z</time>
      </trkpt>
      <trkpt lat="47.657219376" lon="11.720040031">
        <ele>1268.6</ele>
        <time>2020-09-20T06:27:58Z</time>
      </trkpt>
      <trkpt lat="47.657223819" lon="11.719814055">
        <ele>1271.5</ele>
        <time>2020-09-20T06:28:16Z</time>
      </trkpt>
      <trkpt lat="47.657362288" lon="11.718808310">
        <ele>1282.1</ele>
        <time>2020-09-20T06:29:36Z</time>
      </trkpt>
      <trkpt lat="47.657438815" lon="11.718584513">
        <ele>1284.5</ele>
        <time>2020-09-20T06:29:55Z</time>
      </trkpt>
      <trkpt lat="47.657483826" lon="11.718180170">
        <ele>1289.3</ele>
        <time>2020-09-20T06:30:29Z</time>
      </trkpt>
      <trkpt lat="47.657535877" lon="11.717899712">
        <ele>1292.6</ele>
        <time>2020-09-20T06:30:50Z</time>
      </trkpt>
      <trkpt lat="47.657576110" lon="11.717575081">
        <ele>1295.5</ele>
        <time>2020-09-20T06:31:13Z</time>
      </trkpt>
      <trkpt lat="47.657550629" lon="11.717064790">
        <ele>1299.8</ele>
        <time>2020-09-20T06:31:51Z</time>
      </trkpt>
      <trkpt lat="47.657561777" lon="11.716540000">
        <ele>1306.1</ele>
        <time>2020-09-20T06:32:29Z</time>
      </trkpt>
      <trkpt lat="47.657625647" lon="11.716140686">
        <ele>1311.4</ele>
        <time>2020-09-20T06:32:59Z</time>
      </trkpt>
      <trkpt lat="47.657649200" lon="11.715855114">
        <ele>1314.7</ele>
        <time>2020-09-20T06:33:17Z</time>
      </trkpt>
      <trkpt lat="47.657657079" lon="11.715445826">
        <ele>1320.5</ele>
        <time>2020-09-20T06:33:46Z</time>
      </trkpt>
      <trkpt lat="47.657721872" lon="11.715041567">
        <ele>1325.3</ele>
        <time>2020-09-20T06:34:15Z</time>
      </trkpt>
      <trkpt lat="47.657736875" lon="11.714742584">
        <ele>1327.7</ele>
        <time>2020-09-20T06:34:36Z</time>
      </trkpt>
      <trkpt lat="47.657765122" lon="11.714650802">
        <ele>1328.2</ele>
        <time>2020-09-20T06:34:48Z</time>
      </trkpt>
      <trkpt lat="47.657938963" lon="11.714388784">
        <ele>1332.0</ele>
        <time>2020-09-20T06:35:22Z</time>
      </trkpt>
      <trkpt lat="47.657965617" lon="11.714288620">
        <ele>1334.0</ele>
        <time>2020-09-20T06:35:36Z</time>
      </trkpt>
      <trkpt lat="47.657958912" lon="11.713914536">
        <ele>1339.2</ele>
        <time>2020-09-20T06:36:12Z</time>
      </trkpt>
      <trkpt lat="47.658040971" lon="11.713759555">
        <ele>1342.1</ele>
        <time>2020-09-20T06:36:28Z</time>
      </trkpt>
      <trkpt lat="47.658114480" lon="11.713788975">
        <ele>1343.6</ele>
        <time>2020-09-20T06:36:37Z</time>
      </trkpt>
      <trkpt lat="47.658157144" lon="11.713870363">
        <ele>1345.0</ele>
        <time>2020-09-20T06:36:45Z</time>
      </trkpt>
      <trkpt lat="47.658223025" lon="11.714095753">
        <ele>1346.5</ele>
        <time>2020-09-20T06:37:04Z</time>
      </trkpt>
      <trkpt lat="47.658265941" lon="11.714411667">
        <ele>1349.8</ele>
        <time>2020-09-20T06:37:27Z</time>
      </trkpt>
      <trkpt lat="47.658311203" lon="11.714520883">
        <ele>1350.8</ele>
        <time>2020-09-20T06:37:41Z</time>
      </trkpt>
      <trkpt lat="47.658335930" lon="11.714463048">
        <ele>1351.8</ele>
        <time>2020-09-20T06:37:46Z</time>
      </trkpt>
      <trkpt lat="47.658379348" lon="11.714234641">
        <ele>1354.2</ele>
        <time>2020-09-20T06:38:04Z</time>
      </trkpt>
      <trkpt lat="47.658443973" lon="11.714059962">
        <ele>1356.6</ele>
        <time>2020-09-20T06:38:21Z</time>
      </trkpt>
      <trkpt lat="47.658623094" lon="11.713672718">
        <ele>1362.8</ele>
        <time>2020-09-20T06:38:58Z</time>
      </trkpt>
      <trkpt lat="47.658733819" lon="11.713187909">
        <ele>1369.0</ele>
        <time>2020-09-20T06:39:33Z</time>
      </trkpt>
      <trkpt lat="47.659015283" lon="11.712651299">
        <ele>1378.2</ele>
        <time>2020-09-20T06:40:25Z</time>
      </trkpt>
      <trkpt lat="47.659038669" lon="11.712426078">
        <ele>1381.5</ele>
        <time>2020-09-20T06:41:06Z</time>
      </trkpt>
      <trkpt lat="47.659000363" lon="11.712216195">
        <ele>1382.0</ele>
        <time>2020-09-20T06:41:23Z</time>
      </trkpt>
      <trkpt lat="47.659064485" lon="11.712097172">
        <ele>1383.5</ele>
        <time>2020-09-20T06:41:41Z</time>
      </trkpt>
      <trkpt lat="47.659082674" lon="11.712105134">
        <ele>1383.5</ele>
        <time>2020-09-20T06:41:43Z</time>
      </trkpt>
      <trkpt lat="47.659123661" lon="11.712179650">
        <ele>1384.9</ele>
        <time>2020-09-20T06:41:50Z</time>
      </trkpt>
      <trkpt lat="47.659169426" lon="11.712433035">
        <ele>1387.3</ele>
        <time>2020-09-20T06:42:10Z</time>
      </trkpt>
      <trkpt lat="47.659179987" lon="11.712658592">
        <ele>1390.2</ele>
        <time>2020-09-20T06:42:27Z</time>
      </trkpt>
      <trkpt lat="47.659173282" lon="11.712946259">
        <ele>1393.1</ele>
        <time>2020-09-20T06:42:46Z</time>
      </trkpt>
      <trkpt lat="47.659096084" lon="11.713141892">
        <ele>1395.5</ele>
        <time>2020-09-20T06:43:02Z</time>
      </trkpt>
      <trkpt lat="47.659076136" lon="11.713235518">
        <ele>1396.5</ele>
        <time>2020-09-20T06:43:09Z</time>
      </trkpt>
      <trkpt lat="47.659081835" lon="11.713565430">
        <ele>1398.9</ele>
        <time>2020-09-20T06:43:27Z</time>
      </trkpt>
      <trkpt lat="47.659128187" lon="11.713848403">
        <ele>1401.7</ele>
        <time>2020-09-20T06:43:46Z</time>
      </trkpt>
      <trkpt lat="47.659111759" lon="11.713914704">
        <ele>1402.7</ele>
        <time>2020-09-20T06:43:52Z</time>
      </trkpt>
      <trkpt lat="47.659107316" lon="11.714209998">
        <ele>1405.6</ele>
        <time>2020-09-20T06:44:10Z</time>
      </trkpt>
      <trkpt lat="47.659155931" lon="11.714688689">
        <ele>1411.3</ele>
        <time>2020-09-20T06:44:42Z</time>
      </trkpt>
      <trkpt lat="47.659189962" lon="11.714816932">
        <ele>1412.8</ele>
        <time>2020-09-20T06:44:51Z</time>
      </trkpt>
      <trkpt lat="47.659208905" lon="11.715082219">
        <ele>1416.2</ele>
        <time>2020-09-20T06:45:10Z</time>
      </trkpt>
      <trkpt lat="47.659351649" lon="11.715643890">
        <ele>1425.3</ele>
        <time>2020-09-20T06:45:59Z</time>
      </trkpt>
      <trkpt lat="47.659455584" lon="11.715296544">
        <ele>1430.1</ele>
        <time>2020-09-20T06:46:28Z</time>
      </trkpt>
      <trkpt lat="47.659797482" lon="11.714634960">
        <ele>1439.2</ele>
        <time>2020-09-20T06:47:18Z</time>
      </trkpt>
      <trkpt lat="47.660003342" lon="11.713725524">
        <ele>1447.9</ele>
        <time>2020-09-20T06:48:12Z</time>
      </trkpt>
      <trkpt lat="47.660005437" lon="11.713409275">
        <ele>1449.8</ele>
        <time>2020-09-20T06:48:30Z</time>
      </trkpt>
      <trkpt lat="47.659966881" lon="11.713157650">
        <ele>1452.2</ele>
        <time>2020-09-20T06:48:48Z</time>
      </trkpt>
      <trkpt lat="47.659971239" lon="11.713023540">
        <ele>1454.1</ele>
        <time>2020-09-20T06:48:59Z</time>
      </trkpt>
      <trkpt lat="47.660002504" lon="11.712798653">
        <ele>1457.0</ele>
        <time>2020-09-20T06:49:15Z</time>
      </trkpt>
      <trkpt lat="47.660167962" lon="11.712187110">
        <ele>1465.2</ele>
        <time>2020-09-20T06:50:06Z</time>
      </trkpt>
      <trkpt lat="47.660207693" lon="11.711936491">
        <ele>1468.1</ele>
        <time>2020-09-20T06:50:25Z</time>
      </trkpt>
      <trkpt lat="47.660211464" lon="11.711712945">
        <ele>1470.0</ele>
        <time>2020-09-20T06:50:41Z</time>
      </trkpt>
      <trkpt lat="47.660292601" lon="11.711472720">
        <ele>1473.8</ele>
        <time>2020-09-20T06:51:18Z</time>
      </trkpt>
      <trkpt lat="47.660316657" lon="11.711166948">
        <ele>1477.2</ele>
        <time>2020-09-20T06:51:51Z</time>
      </trkpt>
      <trkpt lat="47.660348257" lon="11.711170636">
        <ele>1477.7</ele>
        <time>2020-09-20T06:52:12Z</time>
      </trkpt>
      <trkpt lat="47.660433669" lon="11.711484706">
        <ele>1480.6</ele>
        <time>2020-09-20T06:52:36Z</time>
      </trkpt>
      <trkpt lat="47.660436602" lon="11.711753178">
        <ele>1483.5</ele>
        <time>2020-09-20T06:52:53Z</time>
      </trkpt>
      <trkpt lat="47.660518745" lon="11.712191217">
        <ele>1489.2</ele>
        <time>2020-09-20T06:53:28Z</time>
      </trkpt>
      <trkpt lat="47.660545986" lon="11.712145954">
        <ele>1491.6</ele>
        <time>2020-09-20T06:53:42Z</time>
      </trkpt>
      <trkpt lat="47.660633996" lon="11.711806320">
        <ele>1496.4</ele>
        <time>2020-09-20T06:54:15Z</time>
      </trkpt>
      <trkpt lat="47.660895595" lon="11.710959915">
        <ele>1506.5</ele>
        <time>2020-09-20T06:56:04Z</time>
      </trkpt>
      <trkpt lat="47.660964159" lon="11.710816082">
        <ele>1508.9</ele>
        <time>2020-09-20T06:56:21Z</time>
      </trkpt>
      <trkpt lat="47.661163397" lon="11.710512154">
        <ele>1513.7</ele>
        <time>2020-09-20T06:57:34Z</time>
      </trkpt>
      <trkpt lat="47.661120314" lon="11.710271006">
        <ele>1512.8</ele>
        <time>2020-09-20T06:59:41Z</time>
      </trkpt>
      <trkpt lat="47.661049068" lon="11.710099764">
        <ele>1512.8</ele>
        <time>2020-09-20T06:59:57Z</time>
      </trkpt>
      <trkpt lat="47.661055690" lon="11.710004881">
        <ele>1512.8</ele>
        <time>2020-09-20T07:00:18Z</time>
      </trkpt>
      <trkpt lat="47.661025599" lon="11.709838835">
        <ele>1512.8</ele>
        <time>2020-09-20T07:00:33Z</time>
      </trkpt>
      <trkpt lat="47.660945300" lon="11.709682681">
        <ele>1513.2</ele>
        <time>2020-09-20T07:00:50Z</time>
      </trkpt>
      <trkpt lat="47.660912527" lon="11.709483024">
        <ele>1512.8</ele>
        <time>2020-09-20T07:01:05Z</time>
      </trkpt>
      <trkpt lat="47.660960974" lon="11.709125452">
        <ele>1512.8</ele>
        <time>2020-09-20T07:01:48Z</time>
      </trkpt>
      <trkpt lat="47.660903810" lon="11.708913641">
        <ele>1514.2</ele>
        <time>2020-09-20T07:02:15Z</time>
      </trkpt>
      <trkpt lat="47.660860391" lon="11.708666375">
        <ele>1517.1</ele>
        <time>2020-09-20T07:02:49Z</time>
      </trkpt>
      <trkpt lat="47.660848154" lon="11.708482979">
        <ele>1517.6</ele>
        <time>2020-09-20T07:03:05Z</time>
      </trkpt>
      <trkpt lat="47.660854273" lon="11.708268821">
        <ele>1520.0</ele>
        <time>2020-09-20T07:03:21Z</time>
      </trkpt>
      <trkpt lat="47.660766011" lon="11.707386794">
        <ele>1531.5</ele>
        <time>2020-09-20T07:04:39Z</time>
      </trkpt>
      <trkpt lat="47.660736842" lon="11.707225693">
        <ele>1533.9</ele>
        <time>2020-09-20T07:04:56Z</time>
      </trkpt>
      <trkpt lat="47.660737848" lon="11.707118740">
        <ele>1536.3</ele>
        <time>2020-09-20T07:05:10Z</time>
      </trkpt>
      <trkpt lat="47.660772884" lon="11.706906427">
        <ele>1538.7</ele>
        <time>2020-09-20T07:05:41Z</time>
      </trkpt>
      <trkpt lat="47.660903055" lon="11.706442069">
        <ele>1542.6</ele>
        <time>2020-09-20T07:06:25Z</time>
      </trkpt>
      <trkpt lat="47.661066502" lon="11.706089359">
        <ele>1547.4</ele>
        <time>2020-09-20T07:07:00Z</time>
      </trkpt>
      <trkpt lat="47.661129953" lon="11.706024567">
        <ele>1549.3</ele>
        <time>2020-09-20T07:07:09Z</time>
      </trkpt>
      <trkpt lat="47.661206732" lon="11.705891127">
        <ele>1552.2</ele>
        <time>2020-09-20T07:07:27Z</time>
      </trkpt>
      <trkpt lat="47.661011685" lon="11.705850139">
        <ele>1556.0</ele>
        <time>2020-09-20T07:07:47Z</time>
      </trkpt>
      <trkpt lat="47.660868019" lon="11.705870340">
        <ele>1558.4</ele>
        <time>2020-09-20T07:08:01Z</time>
      </trkpt>
      <trkpt lat="47.660762323" lon="11.705932366">
        <ele>1561.8</ele>
        <time>2020-09-20T07:08:12Z</time>
      </trkpt>
      <trkpt lat="47.660721000" lon="11.705871513">
        <ele>1564.2</ele>
        <time>2020-09-20T07:08:25Z</time>
      </trkpt>
      <trkpt lat="47.660750002" lon="11.705844691">
        <ele>1564.7</ele>
        <time>2020-09-20T07:08:28Z</time>
      </trkpt>
      <trkpt lat="47.660773639" lon="11.705779228">
        <ele>1565.6</ele>
        <time>2020-09-20T07:08:33Z</time>
      </trkpt>
      <trkpt lat="47.660944210" lon="11.705562808">
        <ele>1569.0</ele>
        <time>2020-09-20T07:08:56Z</time>
      </trkpt>
      <trkpt lat="47.661004811" lon="11.705406234">
        <ele>1570.9</ele>
        <time>2020-09-20T07:09:11Z</time>
      </trkpt>
      <trkpt lat="47.661068095" lon="11.705336748">
        <ele>1571.4</ele>
        <time>2020-09-20T07:09:20Z</time>
      </trkpt>
      <trkpt lat="47.661339166" lon="11.705194507">
        <ele>1578.1</ele>
        <time>2020-09-20T07:09:56Z</time>
      </trkpt>
      <trkpt lat="47.661674526" lon="11.705178330">
        <ele>1581.0</ele>
        <time>2020-09-20T07:10:25Z</time>
      </trkpt>
      <trkpt lat="47.661737809" lon="11.705145305">
        <ele>1581.5</ele>
        <time>2020-09-20T07:10:32Z</time>
      </trkpt>
      <trkpt lat="47.661908884" lon="11.705156285">
        <ele>1584.4</ele>
        <time>2020-09-20T07:10:50Z</time>
      </trkpt>
      <trkpt lat="47.661981974" lon="11.705095517">
        <ele>1586.8</ele>
        <time>2020-09-20T07:11:03Z</time>
      </trkpt>
      <trkpt lat="47.662058584" lon="11.704959730">
        <ele>1590.2</ele>
        <time>2020-09-20T07:11:20Z</time>
      </trkpt>
      <trkpt lat="47.662113402" lon="11.704792092">
        <ele>1593.0</ele>
        <time>2020-09-20T07:11:40Z</time>
      </trkpt>
      <trkpt lat="47.662227731" lon="11.704761162">
        <ele>1598.8</ele>
        <time>2020-09-20T07:12:12Z</time>
      </trkpt>
      <trkpt lat="47.662317921" lon="11.704702992">
        <ele>1599.8</ele>
        <time>2020-09-20T07:12:30Z</time>
      </trkpt>
      <trkpt lat="47.662434345" lon="11.704490176">
        <ele>1600.7</ele>
        <time>2020-09-20T07:14:11Z</time>
      </trkpt>
      <trkpt lat="47.662432333" lon="11.704343911">
        <ele>1596.9</ele>
        <time>2020-09-20T07:14:25Z</time>
      </trkpt>
      <trkpt lat="47.662335103" lon="11.704229666">
        <ele>1596.4</ele>
        <time>2020-09-20T07:14:42Z</time>
      </trkpt>
      <trkpt lat="47.662253044" lon="11.704175267">
        <ele>1597.4</ele>
        <time>2020-09-20T07:14:57Z</time>
      </trkpt>
      <trkpt lat="47.662168974" lon="11.704154396">
        <ele>1599.8</ele>
        <time>2020-09-20T07:15:12Z</time>
      </trkpt>
      <trkpt lat="47.662017513" lon="11.704029338">
        <ele>1604.6</ele>
        <time>2020-09-20T07:15:45Z</time>
      </trkpt>
      <trkpt lat="47.661849372" lon="11.703929845">
        <ele>1610.3</ele>
        <time>2020-09-20T07:16:21Z</time>
      </trkpt>
      <trkpt lat="47.661828082" lon="11.703992709">
        <ele>1612.8</ele>
        <time>2020-09-20T07:16:35Z</time>
      </trkpt>
      <trkpt lat="47.661792040" lon="11.704024812">
        <ele>1614.7</ele>
        <time>2020-09-20T07:16:49Z</time>
      </trkpt>
      <trkpt lat="47.661660276" lon="11.703946777">
        <ele>1619.0</ele>
        <time>2020-09-20T07:17:23Z</time>
      </trkpt>
      <trkpt lat="47.661606548" lon="11.703975275">
        <ele>1621.4</ele>
        <time>2020-09-20T07:17:38Z</time>
      </trkpt>
      <trkpt lat="47.661560532" lon="11.703955829">
        <ele>1622.8</ele>
        <time>2020-09-20T07:17:51Z</time>
      </trkpt>
      <trkpt lat="47.661505127" lon="11.703897994">
        <ele>1625.2</ele>
        <time>2020-09-20T07:18:09Z</time>
      </trkpt>
      <trkpt lat="47.661439832" lon="11.703910232">
        <ele>1626.7</ele>
        <time>2020-09-20T07:18:24Z</time>
      </trkpt>
      <trkpt lat="47.661367832" lon="11.703958176">
        <ele>1629.1</ele>
        <time>2020-09-20T07:18:40Z</time>
      </trkpt>
      <trkpt lat="47.661236152" lon="11.703904616">
        <ele>1632.5</ele>
        <time>2020-09-20T07:19:42Z</time>
      </trkpt>
      <trkpt lat="47.661237745" lon="11.703882990">
        <ele>1632.5</ele>
        <time>2020-09-20T07:19:44Z</time>
      </trkpt>
      <trkpt lat="47.661029538" lon="11.703560622">
        <ele>1638.2</ele>
        <time>2020-09-20T07:20:20Z</time>
      </trkpt>
      <trkpt lat="47.660943456" lon="11.703527179">
        <ele>1640.2</ele>
        <time>2020-09-20T07:20:35Z</time>
      </trkpt>
      <trkpt lat="47.660877407" lon="11.703432212">
        <ele>1642.5</ele>
        <time>2020-09-20T07:20:53Z</time>
      </trkpt>
      <trkpt lat="47.660730556" lon="11.703285612">
        <ele>1646.9</ele>
        <time>2020-09-20T07:21:25Z</time>
      </trkpt>
      <trkpt lat="47.660710020" lon="11.703301538">
        <ele>1647.8</ele>
        <time>2020-09-20T07:23:05Z</time>
      </trkpt>
      <trkpt lat="47.660639109" lon="11.703241020">
        <ele>1647.8</ele>
        <time>2020-09-20T07:24:49Z</time>
      </trkpt>
      <trkpt lat="47.660563001" lon="11.703107497">
        <ele>1651.2</ele>
        <time>2020-09-20T07:25:44Z</time>
      </trkpt>
      <trkpt lat="47.660463424" lon="11.702915048">
        <ele>1655.0</ele>
        <time>2020-09-20T07:26:14Z</time>
      </trkpt>
      <trkpt lat="47.660443811" lon="11.702824188">
        <ele>1656.0</ele>
        <time>2020-09-20T07:26:27Z</time>
      </trkpt>
      <trkpt lat="47.660333756" lon="11.702563427">
        <ele>1656.5</ele>
        <time>2020-09-20T07:26:49Z</time>
      </trkpt>
      <trkpt lat="47.660237197" lon="11.702433676">
        <ele>1656.5</ele>
        <time>2020-09-20T07:27:04Z</time>
      </trkpt>
      <trkpt lat="47.660188330" lon="11.702398388">
        <ele>1657.0</ele>
        <time>2020-09-20T07:27:13Z</time>
      </trkpt>
      <trkpt lat="47.660002420" lon="11.702121785">
        <ele>1657.9</ele>
        <time>2020-09-20T07:27:48Z</time>
      </trkpt>
      <trkpt lat="47.659901250" lon="11.701826155">
        <ele>1658.4</ele>
        <time>2020-09-20T07:28:12Z</time>
      </trkpt>
      <trkpt lat="47.659864873" lon="11.701537734">
        <ele>1659.4</ele>
        <time>2020-09-20T07:28:31Z</time>
      </trkpt>
      <trkpt lat="47.659862526" lon="11.701381831">
        <ele>1660.8</ele>
        <time>2020-09-20T07:28:43Z</time>
      </trkpt>
      <trkpt lat="47.659800500" lon="11.701199943">
        <ele>1662.7</ele>
        <time>2020-09-20T07:28:59Z</time>
      </trkpt>
      <trkpt lat="47.659799662" lon="11.701112352">
        <ele>1663.7</ele>
        <time>2020-09-20T07:29:06Z</time>
      </trkpt>
      <trkpt lat="47.659869399" lon="11.700650761">
        <ele>1665.1</ele>
        <time>2020-09-20T07:29:39Z</time>
      </trkpt>
      <trkpt lat="47.659838218" lon="11.700583119">
        <ele>1665.6</ele>
        <time>2020-09-20T07:29:45Z</time>
      </trkpt>
      <trkpt lat="47.659809133" lon="11.700411039">
        <ele>1667.5</ele>
        <time>2020-09-20T07:29:59Z</time>
      </trkpt>
      <trkpt lat="47.659817347" lon="11.700370135">
        <ele>1667.5</ele>
        <time>2020-09-20T07:30:02Z</time>
      </trkpt>
      <trkpt lat="47.659777030" lon="11.700292938">
        <ele>1667.1</ele>
        <time>2020-09-20T07:30:28Z</time>
      </trkpt>
      <trkpt lat="47.659742413" lon="11.700280448">
        <ele>1666.6</ele>
        <time>2020-09-20T07:30:32Z</time>
      </trkpt>
      <trkpt lat="47.659724979" lon="11.700248094">
        <ele>1666.6</ele>
        <time>2020-09-20T07:30:35Z</time>
      </trkpt>
      <trkpt lat="47.659731517" lon="11.700173914">
        <ele>1665.6</ele>
        <time>2020-09-20T07:30:40Z</time>
      </trkpt>
      <trkpt lat="47.659708047" lon="11.699924134">
        <ele>1663.7</ele>
        <time>2020-09-20T07:31:01Z</time>
      </trkpt>
      <trkpt lat="47.659735372" lon="11.699916255">
        <ele>1664.2</ele>
        <time>2020-09-20T07:32:11Z</time>
      </trkpt>
      <trkpt lat="47.659716178" lon="11.699907621">
        <ele>1663.7</ele>
        <time>2020-09-20T07:33:06Z</time>
      </trkpt>
      <trkpt lat="47.659736462" lon="11.699947771">
        <ele>1663.7</ele>
        <time>2020-09-20T07:34:01Z</time>
      </trkpt>
      <trkpt lat="47.659723051" lon="11.699970150">
        <ele>1663.7</ele>
        <time>2020-09-20T07:34:24Z</time>
      </trkpt>
      <trkpt lat="47.659745263" lon="11.699953973">
        <ele>1663.7</ele>
        <time>2020-09-20T07:34:57Z</time>
      </trkpt>
      <trkpt lat="47.659715926" lon="11.699954057">
        <ele>1663.2</ele>
        <time>2020-09-20T07:35:17Z</time>
      </trkpt>
      <trkpt lat="47.659696229" lon="11.699773260">
        <ele>1663.2</ele>
        <time>2020-09-20T07:35:44Z</time>
      </trkpt>
      <trkpt lat="47.659690110" lon="11.699318793">
        <ele>1662.7</ele>
        <time>2020-09-20T07:36:10Z</time>
      </trkpt>
      <trkpt lat="47.659731684" lon="11.699133804">
        <ele>1662.7</ele>
        <time>2020-09-20T07:36:22Z</time>
      </trkpt>
      <trkpt lat="47.659715004" lon="11.699079489">
        <ele>1662.7</ele>
        <time>2020-09-20T07:36:26Z</time>
      </trkpt>
      <trkpt lat="47.659720201" lon="11.698900787">
        <ele>1661.8</ele>
        <time>2020-09-20T07:36:38Z</time>
      </trkpt>
      <trkpt lat="47.659773091" lon="11.698582275">
        <ele>1661.8</ele>
        <time>2020-09-20T07:37:00Z</time>
      </trkpt>
      <trkpt lat="47.659829082" lon="11.698490158">
        <ele>1660.8</ele>
        <time>2020-09-20T07:37:08Z</time>
      </trkpt>
      <trkpt lat="47.659817096" lon="11.698402902">
        <ele>1660.8</ele>
        <time>2020-09-20T07:37:15Z</time>
      </trkpt>
      <trkpt lat="47.659962438" lon="11.698121522">
        <ele>1659.4</ele>
        <time>2020-09-20T07:37:37Z</time>
      </trkpt>
      <trkpt lat="47.660106355" lon="11.697588600">
        <ele>1661.8</ele>
        <time>2020-09-20T07:38:15Z</time>
      </trkpt>
      <trkpt lat="47.660205094" lon="11.697364636">
        <ele>1664.2</ele>
        <time>2020-09-20T07:38:34Z</time>
      </trkpt>
      <trkpt lat="47.660268126" lon="11.697262376">
        <ele>1665.1</ele>
        <time>2020-09-20T07:38:44Z</time>
      </trkpt>
      <trkpt lat="47.660376839" lon="11.697137151">
        <ele>1667.5</ele>
        <time>2020-09-20T07:39:02Z</time>
      </trkpt>
      <trkpt lat="47.660405338" lon="11.697003711">
        <ele>1670.4</ele>
        <time>2020-09-20T07:39:18Z</time>
      </trkpt>
      <trkpt lat="47.660491671" lon="11.696904888">
        <ele>1673.3</ele>
        <time>2020-09-20T07:39:37Z</time>
      </trkpt>
      <trkpt lat="47.660653694" lon="11.696582940">
        <ele>1681.0</ele>
        <time>2020-09-20T07:40:26Z</time>
      </trkpt>
      <trkpt lat="47.660780176" lon="11.696446398">
        <ele>1683.4</ele>
        <time>2020-09-20T07:40:45Z</time>
      </trkpt>
      <trkpt lat="47.660844885" lon="11.696245903">
        <ele>1685.3</ele>
        <time>2020-09-20T07:41:04Z</time>
      </trkpt>
      <trkpt lat="47.660795348" lon="11.696137693">
        <ele>1688.2</ele>
        <time>2020-09-20T07:41:19Z</time>
      </trkpt>
      <trkpt lat="47.660742793" lon="11.696158731">
        <ele>1690.1</ele>
        <time>2020-09-20T07:41:33Z</time>
      </trkpt>
      <trkpt lat="47.660721000" lon="11.696179183">
        <ele>1690.6</ele>
        <time>2020-09-20T07:42:12Z</time>
      </trkpt>
      <trkpt lat="47.660728879" lon="11.696193935">
        <ele>1690.6</ele>
        <time>2020-09-20T07:42:30Z</time>
      </trkpt>
      <trkpt lat="47.660695603" lon="11.696158061">
        <ele>1690.6</ele>
        <time>2020-09-20T07:44:04Z</time>
      </trkpt>
      <trkpt lat="47.660684958" lon="11.696185470">
        <ele>1690.6</ele>
        <time>2020-09-20T07:44:08Z</time>
      </trkpt>
      <trkpt lat="47.660646234" lon="11.696186308">
        <ele>1691.1</ele>
        <time>2020-09-20T07:44:17Z</time>
      </trkpt>
      <trkpt lat="47.660459317" lon="11.696089078">
        <ele>1691.6</ele>
        <time>2020-09-20T07:45:11Z</time>
      </trkpt>
      <trkpt lat="47.660492593" lon="11.696038200">
        <ele>1691.6</ele>
        <time>2020-09-20T07:45:38Z</time>
      </trkpt>
      <trkpt lat="47.660506172" lon="11.696081786">
        <ele>1691.6</ele>
        <time>2020-09-20T07:45:55Z</time>
      </trkpt>
      <trkpt lat="47.660548501" lon="11.696119755">
        <ele>1691.6</ele>
        <time>2020-09-20T07:46:12Z</time>
      </trkpt>
      <trkpt lat="47.660666434" lon="11.696189996">
        <ele>1691.1</ele>
        <time>2020-09-20T07:46:30Z</time>
      </trkpt>
      <trkpt lat="47.660692166" lon="11.696157893">
        <ele>1690.6</ele>
        <time>2020-09-20T07:46:45Z</time>
      </trkpt>
      <trkpt lat="47.660713121" lon="11.696168790">
        <ele>1690.6</ele>
        <time>2020-09-20T07:47:05Z</time>
      </trkpt>
      <trkpt lat="47.660690071" lon="11.696222602">
        <ele>1690.1</ele>
        <time>2020-09-20T07:47:43Z</time>
      </trkpt>
      <trkpt lat="47.660711193" lon="11.696156636">
        <ele>1690.1</ele>
        <time>2020-09-20T07:49:28Z</time>
      </trkpt>
      <trkpt lat="47.660679677" lon="11.696189242">
        <ele>1690.1</ele>
        <time>2020-09-20T07:49:50Z</time>
      </trkpt>
      <trkpt lat="47.660559732" lon="11.696153954">
        <ele>1691.1</ele>
        <time>2020-09-20T07:50:07Z</time>
      </trkpt>
      <trkpt lat="47.660455965" lon="11.696112296">
        <ele>1691.6</ele>
        <time>2020-09-20T07:50:43Z</time>
      </trkpt>
      <trkpt lat="47.660425957" lon="11.696051443">
        <ele>1689.2</ele>
        <time>2020-09-20T08:12:20Z</time>
      </trkpt>
      <trkpt lat="47.660480440" lon="11.696041049">
        <ele>1689.2</ele>
        <time>2020-09-20T08:13:21Z</time>
      </trkpt>
      <trkpt lat="47.660504915" lon="11.696079355">
        <ele>1689.2</ele>
        <time>2020-09-20T08:14:24Z</time>
      </trkpt>
      <trkpt lat="47.660583621" lon="11.696122773">
        <ele>1691.1</ele>
        <time>2020-09-20T08:15:02Z</time>
      </trkpt>
      <trkpt lat="47.660582867" lon="11.696140543">
        <ele>1691.6</ele>
        <time>2020-09-20T08:17:20Z</time>
      </trkpt>
      <trkpt lat="47.660645312" lon="11.696147080">
        <ele>1690.6</ele>
        <time>2020-09-20T08:17:27Z</time>
      </trkpt>
      <trkpt lat="47.660693172" lon="11.696187900">
        <ele>1689.7</ele>
        <time>2020-09-20T08:17:40Z</time>
      </trkpt>
      <trkpt lat="47.660677582" lon="11.696224026">
        <ele>1689.7</ele>
        <time>2020-09-20T08:17:59Z</time>
      </trkpt>
      <trkpt lat="47.660708427" lon="11.696234671">
        <ele>1690.6</ele>
        <time>2020-09-20T08:19:03Z</time>
      </trkpt>
      <trkpt lat="47.660817225" lon="11.696177926">
        <ele>1689.2</ele>
        <time>2020-09-20T08:19:21Z</time>
      </trkpt>
      <trkpt lat="47.660835413" lon="11.696286304">
        <ele>1687.2</ele>
        <time>2020-09-20T08:19:34Z</time>
      </trkpt>
      <trkpt lat="47.660785792" lon="11.696426785">
        <ele>1685.3</ele>
        <time>2020-09-20T08:19:47Z</time>
      </trkpt>
      <trkpt lat="47.660702728" lon="11.696526445">
        <ele>1683.4</ele>
        <time>2020-09-20T08:20:39Z</time>
      </trkpt>
      <trkpt lat="47.660634415" lon="11.696573636">
        <ele>1682.9</ele>
        <time>2020-09-20T08:20:56Z</time>
      </trkpt>
      <trkpt lat="47.660686718" lon="11.696528038">
        <ele>1682.9</ele>
        <time>2020-09-20T08:21:38Z</time>
      </trkpt>
      <trkpt lat="47.660684874" lon="11.696547484">
        <ele>1683.4</ele>
        <time>2020-09-20T08:21:51Z</time>
      </trkpt>
      <trkpt lat="47.660648161" lon="11.696565421">
        <ele>1683.4</ele>
        <time>2020-09-20T08:22:06Z</time>
      </trkpt>
      <trkpt lat="47.660468705" lon="11.696931878">
        <ele>1676.7</ele>
        <time>2020-09-20T08:22:42Z</time>
      </trkpt>
      <trkpt lat="47.660374828" lon="11.697057774">
        <ele>1673.8</ele>
        <time>2020-09-20T08:22:57Z</time>
      </trkpt>
      <trkpt lat="47.660355298" lon="11.697182748">
        <ele>1670.4</ele>
        <time>2020-09-20T08:23:10Z</time>
      </trkpt>
      <trkpt lat="47.660175422" lon="11.697442671">
        <ele>1667.1</ele>
        <time>2020-09-20T08:23:37Z</time>
      </trkpt>
      <trkpt lat="47.660101494" lon="11.697603939">
        <ele>1665.6</ele>
        <time>2020-09-20T08:23:49Z</time>
      </trkpt>
      <trkpt lat="47.659959253" lon="11.698146164">
        <ele>1663.2</ele>
        <time>2020-09-20T08:24:29Z</time>
      </trkpt>
      <trkpt lat="47.659898233" lon="11.698233839">
        <ele>1662.3</ele>
        <time>2020-09-20T08:24:40Z</time>
      </trkpt>
      <trkpt lat="47.659826400" lon="11.698388820">
        <ele>1661.8</ele>
        <time>2020-09-20T08:24:52Z</time>
      </trkpt>
      <trkpt lat="47.659799326" lon="11.698564421">
        <ele>1662.7</ele>
        <time>2020-09-20T08:25:05Z</time>
      </trkpt>
      <trkpt lat="47.659753142" lon="11.698645977">
        <ele>1663.2</ele>
        <time>2020-09-20T08:25:12Z</time>
      </trkpt>
      <trkpt lat="47.659715423" lon="11.699009081">
        <ele>1664.7</ele>
        <time>2020-09-20T08:25:34Z</time>
      </trkpt>
      <trkpt lat="47.659703940" lon="11.699567316">
        <ele>1664.7</ele>
        <time>2020-09-20T08:26:09Z</time>
      </trkpt>
      <trkpt lat="47.659713915" lon="11.699885493">
        <ele>1664.7</ele>
        <time>2020-09-20T08:26:29Z</time>
      </trkpt>
      <trkpt lat="47.659740318" lon="11.700223451">
        <ele>1666.1</ele>
        <time>2020-09-20T08:26:50Z</time>
      </trkpt>
      <trkpt lat="47.659813492" lon="11.700337529">
        <ele>1667.5</ele>
        <time>2020-09-20T08:27:05Z</time>
      </trkpt>
      <trkpt lat="47.659832854" lon="11.700495612">
        <ele>1668.5</ele>
        <time>2020-09-20T08:27:19Z</time>
      </trkpt>
      <trkpt lat="47.659894377" lon="11.700711613">
        <ele>1667.1</ele>
        <time>2020-09-20T08:27:37Z</time>
      </trkpt>
      <trkpt lat="47.659840146" lon="11.700971033">
        <ele>1666.1</ele>
        <time>2020-09-20T08:27:56Z</time>
      </trkpt>
      <trkpt lat="47.659836290" lon="11.701092487">
        <ele>1665.6</ele>
        <time>2020-09-20T08:28:04Z</time>
      </trkpt>
      <trkpt lat="47.659813575" lon="11.701187035">
        <ele>1665.6</ele>
        <time>2020-09-20T08:28:11Z</time>
      </trkpt>
      <trkpt lat="47.659833021" lon="11.701417035">
        <ele>1664.2</ele>
        <time>2020-09-20T08:28:27Z</time>
      </trkpt>
      <trkpt lat="47.659904184" lon="11.701567406">
        <ele>1661.3</ele>
        <time>2020-09-20T08:28:44Z</time>
      </trkpt>
      <trkpt lat="47.659984566" lon="11.701557599">
        <ele>1659.4</ele>
        <time>2020-09-20T08:28:54Z</time>
      </trkpt>
      <trkpt lat="47.660007952" lon="11.701633288">
        <ele>1657.9</ele>
        <time>2020-09-20T08:29:00Z</time>
      </trkpt>
      <trkpt lat="47.660106271" lon="11.701690201">
        <ele>1654.6</ele>
        <time>2020-09-20T08:29:14Z</time>
      </trkpt>
      <trkpt lat="47.660160335" lon="11.701793885">
        <ele>1652.2</ele>
        <time>2020-09-20T08:29:27Z</time>
      </trkpt>
      <trkpt lat="47.660242226" lon="11.701866807">
        <ele>1650.2</ele>
        <time>2020-09-20T08:29:40Z</time>
      </trkpt>
      <trkpt lat="47.660414390" lon="11.701970659">
        <ele>1647.4</ele>
        <time>2020-09-20T08:30:06Z</time>
      </trkpt>
      <trkpt lat="47.660556296" lon="11.702107284">
        <ele>1644.0</ele>
        <time>2020-09-20T08:30:31Z</time>
      </trkpt>
      <trkpt lat="47.660603486" lon="11.702117678">
        <ele>1642.1</ele>
        <time>2020-09-20T08:30:45Z</time>
      </trkpt>
      <trkpt lat="47.660671379" lon="11.702189343">
        <ele>1640.6</ele>
        <time>2020-09-20T08:30:57Z</time>
      </trkpt>
      <trkpt lat="47.660747822" lon="11.702365279">
        <ele>1639.2</ele>
        <time>2020-09-20T08:31:16Z</time>
      </trkpt>
      <trkpt lat="47.660934907" lon="11.702618161">
        <ele>1635.3</ele>
        <time>2020-09-20T08:31:54Z</time>
      </trkpt>
      <trkpt lat="47.661057953" lon="11.702749254">
        <ele>1632.0</ele>
        <time>2020-09-20T08:32:22Z</time>
      </trkpt>
      <trkpt lat="47.661171695" lon="11.702805413">
        <ele>1627.7</ele>
        <time>2020-09-20T08:32:46Z</time>
      </trkpt>
      <trkpt lat="47.661200361" lon="11.702861488">
        <ele>1626.2</ele>
        <time>2020-09-20T08:32:59Z</time>
      </trkpt>
      <trkpt lat="47.661232548" lon="11.702853860">
        <ele>1625.2</ele>
        <time>2020-09-20T08:33:10Z</time>
      </trkpt>
      <trkpt lat="47.661316535" lon="11.702917144">
        <ele>1623.3</ele>
        <time>2020-09-20T08:33:24Z</time>
      </trkpt>
      <trkpt lat="47.661575535" lon="11.703271531">
        <ele>1616.6</ele>
        <time>2020-09-20T08:33:58Z</time>
      </trkpt>
      <trkpt lat="47.661760189" lon="11.703500524">
        <ele>1612.3</ele>
        <time>2020-09-20T08:34:30Z</time>
      </trkpt>
      <trkpt lat="47.661902262" lon="11.703576883">
        <ele>1608.4</ele>
        <time>2020-09-20T08:34:46Z</time>
      </trkpt>
      <trkpt lat="47.661976358" lon="11.703643268">
        <ele>1606.5</ele>
        <time>2020-09-20T08:34:54Z</time>
      </trkpt>
      <trkpt lat="47.662071828" lon="11.703808643">
        <ele>1603.6</ele>
        <time>2020-09-20T08:35:11Z</time>
      </trkpt>
      <trkpt lat="47.662188755" lon="11.703933785">
        <ele>1601.7</ele>
        <time>2020-09-20T08:35:26Z</time>
      </trkpt>
      <trkpt lat="47.662250698" lon="11.703975024">
        <ele>1600.2</ele>
        <time>2020-09-20T08:35:33Z</time>
      </trkpt>
      <trkpt lat="47.662443481" lon="11.704170406">
        <ele>1597.4</ele>
        <time>2020-09-20T08:35:56Z</time>
      </trkpt>
      <trkpt lat="47.662583459" lon="11.704264618">
        <ele>1595.0</ele>
        <time>2020-09-20T08:36:12Z</time>
      </trkpt>
      <trkpt lat="47.662699046" lon="11.704291608">
        <ele>1593.0</ele>
        <time>2020-09-20T08:36:22Z</time>
      </trkpt>
      <trkpt lat="47.662813207" lon="11.704278197">
        <ele>1589.7</ele>
        <time>2020-09-20T08:36:34Z</time>
      </trkpt>
      <trkpt lat="47.662992580" lon="11.704307450">
        <ele>1583.9</ele>
        <time>2020-09-20T08:37:13Z</time>
      </trkpt>
      <trkpt lat="47.663096599" lon="11.704281885">
        <ele>1582.5</ele>
        <time>2020-09-20T08:37:28Z</time>
      </trkpt>
      <trkpt lat="47.663357277" lon="11.704316335">
        <ele>1577.2</ele>
        <time>2020-09-20T08:37:57Z</time>
      </trkpt>
      <trkpt lat="47.663746700" lon="11.704292195">
        <ele>1566.6</ele>
        <time>2020-09-20T08:38:47Z</time>
      </trkpt>
      <trkpt lat="47.663955074" lon="11.704401746">
        <ele>1563.2</ele>
        <time>2020-09-20T08:39:10Z</time>
      </trkpt>
      <trkpt lat="47.664144589" lon="11.704649264">
        <ele>1560.4</ele>
        <time>2020-09-20T08:39:38Z</time>
      </trkpt>
      <trkpt lat="47.664426556" lon="11.704814304">
        <ele>1557.0</ele>
        <time>2020-09-20T08:40:02Z</time>
      </trkpt>
      <trkpt lat="47.664666697" lon="11.704886975">
        <ele>1554.1</ele>
        <time>2020-09-20T08:40:21Z</time>
      </trkpt>
      <trkpt lat="47.664785720" lon="11.704869457">
        <ele>1552.2</ele>
        <time>2020-09-20T08:40:36Z</time>
      </trkpt>
      <trkpt lat="47.665038267" lon="11.704590842">
        <ele>1549.8</ele>
        <time>2020-09-20T08:41:02Z</time>
      </trkpt>
      <trkpt lat="47.665180592" lon="11.704352545">
        <ele>1547.9</ele>
        <time>2020-09-20T08:41:20Z</time>
      </trkpt>
      <trkpt lat="47.665518383" lon="11.703527179">
        <ele>1542.1</ele>
        <time>2020-09-20T08:42:16Z</time>
      </trkpt>
      <trkpt lat="47.665538834" lon="11.703426428">
        <ele>1541.1</ele>
        <time>2020-09-20T08:42:46Z</time>
      </trkpt>
      <trkpt lat="47.665599687" lon="11.703303298">
        <ele>1539.7</ele>
        <time>2020-09-20T08:43:00Z</time>
      </trkpt>
      <trkpt lat="47.665652661" lon="11.703116884">
        <ele>1539.2</ele>
        <time>2020-09-20T08:43:16Z</time>
      </trkpt>
      <trkpt lat="47.665855670" lon="11.702862913">
        <ele>1537.8</ele>
        <time>2020-09-20T08:44:11Z</time>
      </trkpt>
      <trkpt lat="47.666044850" lon="11.702707177">
        <ele>1534.4</ele>
        <time>2020-09-20T08:44:38Z</time>
      </trkpt>
      <trkpt lat="47.666267389" lon="11.702371063">
        <ele>1529.1</ele>
        <time>2020-09-20T08:45:06Z</time>
      </trkpt>
      <trkpt lat="47.666448690" lon="11.701953979">
        <ele>1522.4</ele>
        <time>2020-09-20T08:45:33Z</time>
      </trkpt>
      <trkpt lat="47.666489342" lon="11.701914584">
        <ele>1520.0</ele>
        <time>2020-09-20T08:45:50Z</time>
      </trkpt>
      <trkpt lat="47.666543657" lon="11.701917267">
        <ele>1520.0</ele>
        <time>2020-09-20T08:46:02Z</time>
      </trkpt>
      <trkpt lat="47.666689921" lon="11.702061351">
        <ele>1516.6</ele>
        <time>2020-09-20T08:46:29Z</time>
      </trkpt>
      <trkpt lat="47.666848255" lon="11.702336697">
        <ele>1512.3</ele>
        <time>2020-09-20T08:47:03Z</time>
      </trkpt>
      <trkpt lat="47.666966440" lon="11.702697706">
        <ele>1506.0</ele>
        <time>2020-09-20T08:47:33Z</time>
      </trkpt>
      <trkpt lat="47.667006087" lon="11.702880850">
        <ele>1502.7</ele>
        <time>2020-09-20T08:47:50Z</time>
      </trkpt>
      <trkpt lat="47.667045649" lon="11.703362893">
        <ele>1496.0</ele>
        <time>2020-09-20T08:48:23Z</time>
      </trkpt>
      <trkpt lat="47.667241367" lon="11.702698628">
        <ele>1485.8</ele>
        <time>2020-09-20T08:49:01Z</time>
      </trkpt>
      <trkpt lat="47.667257627" lon="11.702769957">
        <ele>1484.9</ele>
        <time>2020-09-20T08:49:06Z</time>
      </trkpt>
      <trkpt lat="47.667261064" lon="11.703086123">
        <ele>1480.1</ele>
        <time>2020-09-20T08:49:27Z</time>
      </trkpt>
      <trkpt lat="47.667286545" lon="11.703096684">
        <ele>1479.1</ele>
        <time>2020-09-20T08:49:32Z</time>
      </trkpt>
      <trkpt lat="47.667356199" lon="11.702835085">
        <ele>1475.3</ele>
        <time>2020-09-20T08:49:49Z</time>
      </trkpt>
      <trkpt lat="47.667383272" lon="11.702833995">
        <ele>1474.3</ele>
        <time>2020-09-20T08:49:53Z</time>
      </trkpt>
      <trkpt lat="47.667378494" lon="11.702947402">
        <ele>1472.9</ele>
        <time>2020-09-20T08:50:00Z</time>
      </trkpt>
      <trkpt lat="47.667393750" lon="11.703001047">
        <ele>1471.4</ele>
        <time>2020-09-20T08:50:09Z</time>
      </trkpt>
      <trkpt lat="47.667454183" lon="11.702926029">
        <ele>1469.0</ele>
        <time>2020-09-20T08:50:20Z</time>
      </trkpt>
      <trkpt lat="47.667446556" lon="11.702969782">
        <ele>1468.1</ele>
        <time>2020-09-20T08:50:23Z</time>
      </trkpt>
      <trkpt lat="47.667468265" lon="11.703158710">
        <ele>1463.7</ele>
        <time>2020-09-20T08:50:52Z</time>
      </trkpt>
      <trkpt lat="47.667440940" lon="11.703159045">
        <ele>1464.2</ele>
        <time>2020-09-20T08:51:07Z</time>
      </trkpt>
      <trkpt lat="47.667473713" lon="11.703101713">
        <ele>1463.7</ele>
        <time>2020-09-20T08:51:18Z</time>
      </trkpt>
      <trkpt lat="47.667549904" lon="11.702868780">
        <ele>1459.9</ele>
        <time>2020-09-20T08:51:36Z</time>
      </trkpt>
      <trkpt lat="47.667563735" lon="11.703296425">
        <ele>1455.1</ele>
        <time>2020-09-20T08:52:02Z</time>
      </trkpt>
      <trkpt lat="47.667609751" lon="11.703608651">
        <ele>1451.7</ele>
        <time>2020-09-20T08:52:19Z</time>
      </trkpt>
      <trkpt lat="47.667664317" lon="11.703721806">
        <ele>1449.8</ele>
        <time>2020-09-20T08:52:28Z</time>
      </trkpt>
      <trkpt lat="47.667684266" lon="11.703960355">
        <ele>1446.4</ele>
        <time>2020-09-20T08:52:43Z</time>
      </trkpt>
      <trkpt lat="47.667714190" lon="11.704110056">
        <ele>1444.5</ele>
        <time>2020-09-20T08:52:57Z</time>
      </trkpt>
      <trkpt lat="47.667721650" lon="11.704323208">
        <ele>1442.6</ele>
        <time>2020-09-20T08:53:12Z</time>
      </trkpt>
      <trkpt lat="47.667764397" lon="11.704177195">
        <ele>1440.7</ele>
        <time>2020-09-20T08:53:21Z</time>
      </trkpt>
      <trkpt lat="47.667848971" lon="11.704672147">
        <ele>1433.9</ele>
        <time>2020-09-20T08:53:48Z</time>
      </trkpt>
      <trkpt lat="47.667891467" lon="11.704945480">
        <ele>1430.6</ele>
        <time>2020-09-20T08:54:03Z</time>
      </trkpt>
      <trkpt lat="47.667880571" lon="11.705052517">
        <ele>1428.7</ele>
        <time>2020-09-20T08:54:10Z</time>
      </trkpt>
      <trkpt lat="47.667893227" lon="11.705262233">
        <ele>1425.3</ele>
        <time>2020-09-20T08:54:40Z</time>
      </trkpt>
      <trkpt lat="47.668007305" lon="11.705571944">
        <ele>1421.9</ele>
        <time>2020-09-20T08:55:03Z</time>
      </trkpt>
      <trkpt lat="47.668075869" lon="11.705711000">
        <ele>1420.0</ele>
        <time>2020-09-20T08:55:14Z</time>
      </trkpt>
      <trkpt lat="47.668105541" lon="11.705919290">
        <ele>1416.6</ele>
        <time>2020-09-20T08:55:27Z</time>
      </trkpt>
      <trkpt lat="47.668107636" lon="11.706225984">
        <ele>1413.3</ele>
        <time>2020-09-20T08:55:45Z</time>
      </trkpt>
      <trkpt lat="47.668089196" lon="11.706411727">
        <ele>1410.9</ele>
        <time>2020-09-20T08:55:56Z</time>
      </trkpt>
      <trkpt lat="47.668160442" lon="11.706295637">
        <ele>1408.5</ele>
        <time>2020-09-20T08:56:07Z</time>
      </trkpt>
      <trkpt lat="47.668180643" lon="11.706329584">
        <ele>1407.0</ele>
        <time>2020-09-20T08:56:11Z</time>
      </trkpt>
      <trkpt lat="47.668173518" lon="11.706428155">
        <ele>1405.1</ele>
        <time>2020-09-20T08:56:18Z</time>
      </trkpt>
      <trkpt lat="47.668145942" lon="11.706616245">
        <ele>1401.3</ele>
        <time>2020-09-20T08:56:33Z</time>
      </trkpt>
      <trkpt lat="47.668148456" lon="11.706733340">
        <ele>1399.3</ele>
        <time>2020-09-20T08:56:41Z</time>
      </trkpt>
      <trkpt lat="47.668178882" lon="11.706766365">
        <ele>1396.5</ele>
        <time>2020-09-20T08:56:54Z</time>
      </trkpt>
      <trkpt lat="47.668218780" lon="11.706712637">
        <ele>1395.0</ele>
        <time>2020-09-20T08:57:00Z</time>
      </trkpt>
      <trkpt lat="47.668445008" lon="11.706572911">
        <ele>1388.8</ele>
        <time>2020-09-20T08:57:28Z</time>
      </trkpt>
      <trkpt lat="47.668587165" lon="11.706439806">
        <ele>1384.4</ele>
        <time>2020-09-20T08:57:50Z</time>
      </trkpt>
      <trkpt lat="47.668635864" lon="11.706483476">
        <ele>1383.0</ele>
        <time>2020-09-20T08:57:56Z</time>
      </trkpt>
      <trkpt lat="47.668691520" lon="11.706591686">
        <ele>1381.5</ele>
        <time>2020-09-20T08:58:04Z</time>
      </trkpt>
      <trkpt lat="47.668862008" lon="11.706502754">
        <ele>1377.2</ele>
        <time>2020-09-20T08:58:23Z</time>
      </trkpt>
      <trkpt lat="47.668888746" lon="11.706516584">
        <ele>1376.3</ele>
        <time>2020-09-20T08:58:26Z</time>
      </trkpt>
      <trkpt lat="47.668928225" lon="11.706624460">
        <ele>1372.9</ele>
        <time>2020-09-20T08:58:42Z</time>
      </trkpt>
      <trkpt lat="47.668935768" lon="11.706823530">
        <ele>1371.9</ele>
        <time>2020-09-20T08:58:54Z</time>
      </trkpt>
      <trkpt lat="47.669024197" lon="11.707023187">
        <ele>1369.0</ele>
        <time>2020-09-20T08:59:12Z</time>
      </trkpt>
      <trkpt lat="47.668990335" lon="11.707013296">
        <ele>1367.6</ele>
        <time>2020-09-20T08:59:50Z</time>
      </trkpt>
      <trkpt lat="47.669042805" lon="11.707360223">
        <ele>1362.8</ele>
        <time>2020-09-20T09:00:16Z</time>
      </trkpt>
      <trkpt lat="47.669036435" lon="11.707401797">
        <ele>1362.3</ele>
        <time>2020-09-20T09:00:19Z</time>
      </trkpt>
      <trkpt lat="47.669081949" lon="11.707698265">
        <ele>1356.6</ele>
        <time>2020-09-20T09:00:51Z</time>
      </trkpt>
      <trkpt lat="47.669123774" lon="11.708200006">
        <ele>1347.4</ele>
        <time>2020-09-20T09:01:32Z</time>
      </trkpt>
      <trkpt lat="47.669181358" lon="11.708575180">
        <ele>1341.2</ele>
        <time>2020-09-20T09:02:01Z</time>
      </trkpt>
      <trkpt lat="47.669234667" lon="11.708737705">
        <ele>1338.3</ele>
        <time>2020-09-20T09:02:17Z</time>
      </trkpt>
      <trkpt lat="47.669221424" lon="11.709042052">
        <ele>1332.0</ele>
        <time>2020-09-20T09:02:44Z</time>
      </trkpt>
      <trkpt lat="47.669204241" lon="11.709134420">
        <ele>1330.1</ele>
        <time>2020-09-20T09:03:01Z</time>
      </trkpt>
      <trkpt lat="47.669225028" lon="11.709341202">
        <ele>1327.2</ele>
        <time>2020-09-20T09:03:35Z</time>
      </trkpt>
      <trkpt lat="47.669221675" lon="11.709481180">
        <ele>1324.8</ele>
        <time>2020-09-20T09:03:50Z</time>
      </trkpt>
      <trkpt lat="47.669179430" lon="11.709913099">
        <ele>1318.1</ele>
        <time>2020-09-20T09:04:23Z</time>
      </trkpt>
      <trkpt lat="47.669303231" lon="11.710757827">
        <ele>1305.6</ele>
        <time>2020-09-20T09:05:38Z</time>
      </trkpt>
      <trkpt lat="47.669291580" lon="11.711016241">
        <ele>1299.8</ele>
        <time>2020-09-20T09:06:07Z</time>
      </trkpt>
      <trkpt lat="47.669325611" lon="11.711644130">
        <ele>1287.3</ele>
        <time>2020-09-20T09:07:03Z</time>
      </trkpt>
      <trkpt lat="47.669280684" lon="11.711797435">
        <ele>1282.5</ele>
        <time>2020-09-20T09:07:27Z</time>
      </trkpt>
      <trkpt lat="47.669163756" lon="11.711660475">
        <ele>1281.1</ele>
        <time>2020-09-20T09:07:41Z</time>
      </trkpt>
      <trkpt lat="47.669031238" lon="11.711313631">
        <ele>1276.8</ele>
        <time>2020-09-20T09:08:03Z</time>
      </trkpt>
      <trkpt lat="47.668968039" lon="11.711454447">
        <ele>1274.4</ele>
        <time>2020-09-20T09:08:14Z</time>
      </trkpt>
      <trkpt lat="47.669093348" lon="11.711984351">
        <ele>1268.1</ele>
        <time>2020-09-20T09:08:45Z</time>
      </trkpt>
      <trkpt lat="47.669155290" lon="11.712152073">
        <ele>1266.2</ele>
        <time>2020-09-20T09:08:54Z</time>
      </trkpt>
      <trkpt lat="47.669309433" lon="11.712903930">
        <ele>1259.9</ele>
        <time>2020-09-20T09:09:34Z</time>
      </trkpt>
      <trkpt lat="47.669347487" lon="11.713256640">
        <ele>1256.6</ele>
        <time>2020-09-20T09:09:50Z</time>
      </trkpt>
      <trkpt lat="47.669329299" lon="11.713658720">
        <ele>1252.7</ele>
        <time>2020-09-20T09:10:07Z</time>
      </trkpt>
      <trkpt lat="47.669374561" lon="11.713975724">
        <ele>1249.4</ele>
        <time>2020-09-20T09:10:21Z</time>
      </trkpt>
      <trkpt lat="47.669487968" lon="11.714284765">
        <ele>1246.0</ele>
        <time>2020-09-20T09:10:36Z</time>
      </trkpt>
      <trkpt lat="47.669654517" lon="11.714602355">
        <ele>1242.6</ele>
        <time>2020-09-20T09:10:55Z</time>
      </trkpt>
      <trkpt lat="47.669657618" lon="11.714870324">
        <ele>1241.2</ele>
        <time>2020-09-20T09:11:09Z</time>
      </trkpt>
      <trkpt lat="47.669743868" lon="11.715170983">
        <ele>1237.8</ele>
        <time>2020-09-20T09:11:24Z</time>
      </trkpt>
      <trkpt lat="47.669864986" lon="11.715431744">
        <ele>1234.5</ele>
        <time>2020-09-20T09:11:37Z</time>
      </trkpt>
      <trkpt lat="47.669877978" lon="11.715511456">
        <ele>1233.5</ele>
        <time>2020-09-20T09:11:41Z</time>
      </trkpt>
      <trkpt lat="47.669801954" lon="11.715624947">
        <ele>1232.5</ele>
        <time>2020-09-20T09:11:49Z</time>
      </trkpt>
      <trkpt lat="47.669723500" lon="11.715987464">
        <ele>1230.6</ele>
        <time>2020-09-20T09:12:06Z</time>
      </trkpt>
      <trkpt lat="47.669739257" lon="11.716280747">
        <ele>1227.7</ele>
        <time>2020-09-20T09:12:21Z</time>
      </trkpt>
      <trkpt lat="47.669704724" lon="11.716629518">
        <ele>1224.4</ele>
        <time>2020-09-20T09:12:38Z</time>
      </trkpt>
      <trkpt lat="47.669618810" lon="11.717061438">
        <ele>1219.6</ele>
        <time>2020-09-20T09:12:58Z</time>
      </trkpt>
      <trkpt lat="47.669452093" lon="11.717621097">
        <ele>1212.8</ele>
        <time>2020-09-20T09:13:58Z</time>
      </trkpt>
      <trkpt lat="47.669450250" lon="11.717986381">
        <ele>1210.4</ele>
        <time>2020-09-20T09:14:18Z</time>
      </trkpt>
      <trkpt lat="47.669564914" lon="11.718199365">
        <ele>1207.5</ele>
        <time>2020-09-20T09:14:35Z</time>
      </trkpt>
      <trkpt lat="47.669738252" lon="11.718443111">
        <ele>1204.7</ele>
        <time>2020-09-20T09:14:54Z</time>
      </trkpt>
      <trkpt lat="47.669903208" lon="11.718616197">
        <ele>1202.8</ele>
        <time>2020-09-20T09:15:07Z</time>
      </trkpt>
      <trkpt lat="47.669984009" lon="11.718785008">
        <ele>1200.8</ele>
        <time>2020-09-20T09:15:17Z</time>
      </trkpt>
      <trkpt lat="47.670004042" lon="11.718916269">
        <ele>1199.4</ele>
        <time>2020-09-20T09:15:24Z</time>
      </trkpt>
      <trkpt lat="47.669975543" lon="11.719256910">
        <ele>1195.5</ele>
        <time>2020-09-20T09:15:39Z</time>
      </trkpt>
      <trkpt lat="47.669941429" lon="11.719458913">
        <ele>1193.6</ele>
        <time>2020-09-20T09:15:48Z</time>
      </trkpt>
      <trkpt lat="47.669923743" lon="11.719805086">
        <ele>1190.2</ele>
        <time>2020-09-20T09:16:03Z</time>
      </trkpt>
      <trkpt lat="47.669919636" lon="11.720409840">
        <ele>1184.0</ele>
        <time>2020-09-20T09:16:30Z</time>
      </trkpt>
      <trkpt lat="47.669878146" lon="11.720753163">
        <ele>1180.6</ele>
        <time>2020-09-20T09:16:45Z</time>
      </trkpt>
      <trkpt lat="47.669762978" lon="11.721320534">
        <ele>1174.4</ele>
        <time>2020-09-20T09:17:12Z</time>
      </trkpt>
      <trkpt lat="47.669744706" lon="11.721860412">
        <ele>1168.1</ele>
        <time>2020-09-20T09:17:38Z</time>
      </trkpt>
      <trkpt lat="47.669670610" lon="11.722184625">
        <ele>1164.8</ele>
        <time>2020-09-20T09:17:54Z</time>
      </trkpt>
      <trkpt lat="47.669689721" lon="11.722498946">
        <ele>1161.9</ele>
        <time>2020-09-20T09:18:09Z</time>
      </trkpt>
      <trkpt lat="47.669737414" lon="11.722764485">
        <ele>1159.0</ele>
        <time>2020-09-20T09:18:24Z</time>
      </trkpt>
      <trkpt lat="47.669908320" lon="11.723496476">
        <ele>1153.2</ele>
        <time>2020-09-20T09:19:00Z</time>
      </trkpt>
      <trkpt lat="47.669959953" lon="11.723824963">
        <ele>1149.9</ele>
        <time>2020-09-20T09:19:14Z</time>
      </trkpt>
      <trkpt lat="47.669932963" lon="11.724158144">
        <ele>1146.5</ele>
        <time>2020-09-20T09:19:29Z</time>
      </trkpt>
      <trkpt lat="47.669862723" lon="11.724484200">
        <ele>1143.6</ele>
        <time>2020-09-20T09:19:45Z</time>
      </trkpt>
      <trkpt lat="47.669776557" lon="11.724795755">
        <ele>1140.7</ele>
        <time>2020-09-20T09:20:00Z</time>
      </trkpt>
      <trkpt lat="47.669566506" lon="11.724898936">
        <ele>1137.9</ele>
        <time>2020-09-20T09:20:15Z</time>
      </trkpt>
      <trkpt lat="47.669321420" lon="11.724914191">
        <ele>1134.0</ele>
        <time>2020-09-20T09:20:31Z</time>
      </trkpt>
      <trkpt lat="47.668958316" lon="11.724552931">
        <ele>1127.8</ele>
        <time>2020-09-20T09:21:02Z</time>
      </trkpt>
      <trkpt lat="47.668798389" lon="11.724659130">
        <ele>1125.4</ele>
        <time>2020-09-20T09:21:19Z</time>
      </trkpt>
      <trkpt lat="47.668262366" lon="11.724623423">
        <ele>1119.6</ele>
        <time>2020-09-20T09:21:57Z</time>
      </trkpt>
      <trkpt lat="47.668197239" lon="11.724642115">
        <ele>1119.1</ele>
        <time>2020-09-20T09:22:02Z</time>
      </trkpt>
      <trkpt lat="47.668168237" lon="11.724697184">
        <ele>1118.6</ele>
        <time>2020-09-20T09:22:06Z</time>
      </trkpt>
      <trkpt lat="47.668206375" lon="11.724927016">
        <ele>1115.8</ele>
        <time>2020-09-20T09:22:24Z</time>
      </trkpt>
      <trkpt lat="47.668510219" lon="11.725491118">
        <ele>1106.1</ele>
        <time>2020-09-20T09:23:06Z</time>
      </trkpt>
      <trkpt lat="47.668644665" lon="11.725707119">
        <ele>1103.2</ele>
        <time>2020-09-20T09:23:20Z</time>
      </trkpt>
      <trkpt lat="47.668738039" lon="11.725780461">
        <ele>1101.8</ele>
        <time>2020-09-20T09:23:26Z</time>
      </trkpt>
      <trkpt lat="47.668799227" lon="11.725877356">
        <ele>1101.3</ele>
        <time>2020-09-20T09:23:30Z</time>
      </trkpt>
      <trkpt lat="47.668809034" lon="11.725924630">
        <ele>1100.8</ele>
        <time>2020-09-20T09:23:32Z</time>
      </trkpt>
      <trkpt lat="47.668768717" lon="11.725989422">
        <ele>1099.9</ele>
        <time>2020-09-20T09:23:38Z</time>
      </trkpt>
      <trkpt lat="47.668599402" lon="11.726018172">
        <ele>1097.0</ele>
        <time>2020-09-20T09:23:52Z</time>
      </trkpt>
      <trkpt lat="47.668206124" lon="11.726253284">
        <ele>1089.3</ele>
        <time>2020-09-20T09:24:25Z</time>
      </trkpt>
      <trkpt lat="47.668138733" lon="11.726475907">
        <ele>1086.4</ele>
        <time>2020-09-20T09:24:39Z</time>
      </trkpt>
      <trkpt lat="47.668120042" lon="11.726754019">
        <ele>1082.6</ele>
        <time>2020-09-20T09:24:55Z</time>
      </trkpt>
      <trkpt lat="47.667997163" lon="11.726965327">
        <ele>1079.7</ele>
        <time>2020-09-20T09:25:09Z</time>
      </trkpt>
      <trkpt lat="47.667858945" lon="11.727151740">
        <ele>1076.8</ele>
        <time>2020-09-20T09:25:25Z</time>
      </trkpt>
      <trkpt lat="47.667667000" lon="11.727646608">
        <ele>1070.6</ele>
        <time>2020-09-20T09:25:55Z</time>
      </trkpt>
      <trkpt lat="47.667494332" lon="11.727699162">
        <ele>1067.7</ele>
        <time>2020-09-20T09:26:07Z</time>
      </trkpt>
      <trkpt lat="47.667296939" lon="11.727727577">
        <ele>1064.8</ele>
        <time>2020-09-20T09:26:22Z</time>
      </trkpt>
      <trkpt lat="47.667173808" lon="11.727940058">
        <ele>1061.4</ele>
        <time>2020-09-20T09:26:37Z</time>
      </trkpt>
      <trkpt lat="47.666813722" lon="11.728091687">
        <ele>1055.2</ele>
        <time>2020-09-20T09:27:04Z</time>
      </trkpt>
      <trkpt lat="47.666486828" lon="11.728373906">
        <ele>1048.0</ele>
        <time>2020-09-20T09:27:32Z</time>
      </trkpt>
      <trkpt lat="47.666454306" lon="11.728429813">
        <ele>1047.0</ele>
        <time>2020-09-20T09:27:36Z</time>
      </trkpt>
      <trkpt lat="47.666445002" lon="11.728493264">
        <ele>1045.6</ele>
        <time>2020-09-20T09:27:40Z</time>
      </trkpt>
      <trkpt lat="47.666475680" lon="11.728536934">
        <ele>1044.6</ele>
        <time>2020-09-20T09:27:46Z</time>
      </trkpt>
      <trkpt lat="47.666559499" lon="11.728550512">
        <ele>1042.7</ele>
        <time>2020-09-20T09:27:54Z</time>
      </trkpt>
      <trkpt lat="47.666677181" lon="11.728636259">
        <ele>1039.8</ele>
        <time>2020-09-20T09:28:08Z</time>
      </trkpt>
      <trkpt lat="47.666819673" lon="11.728685377">
        <ele>1036.0</ele>
        <time>2020-09-20T09:28:26Z</time>
      </trkpt>
      <trkpt lat="47.666992424" lon="11.728784703">
        <ele>1032.6</ele>
        <time>2020-09-20T09:28:41Z</time>
      </trkpt>
      <trkpt lat="47.667179927" lon="11.729045715">
        <ele>1028.3</ele>
        <time>2020-09-20T09:29:01Z</time>
      </trkpt>
      <trkpt lat="47.667323677" lon="11.729155686">
        <ele>1024.9</ele>
        <time>2020-09-20T09:29:14Z</time>
      </trkpt>
      <trkpt lat="47.667687619" lon="11.729242187">
        <ele>1018.6</ele>
        <time>2020-09-20T09:29:38Z</time>
      </trkpt>
      <trkpt lat="47.667908817" lon="11.729211761">
        <ele>1015.8</ele>
        <time>2020-09-20T09:29:52Z</time>
      </trkpt>
      <trkpt lat="47.668059357" lon="11.729151998">
        <ele>1013.4</ele>
        <time>2020-09-20T09:30:02Z</time>
      </trkpt>
      <trkpt lat="47.668191623" lon="11.729131630">
        <ele>1011.0</ele>
        <time>2020-09-20T09:30:12Z</time>
      </trkpt>
      <trkpt lat="47.668359345" lon="11.729267752">
        <ele>1008.1</ele>
        <time>2020-09-20T09:30:27Z</time>
      </trkpt>
      <trkpt lat="47.668535281" lon="11.729517197">
        <ele>1004.7</ele>
        <time>2020-09-20T09:30:43Z</time>
      </trkpt>
      <trkpt lat="47.668643827" lon="11.729849540">
        <ele>1001.8</ele>
        <time>2020-09-20T09:30:59Z</time>
      </trkpt>
      <trkpt lat="47.668664698" lon="11.729962947">
        <ele>1000.9</ele>
        <time>2020-09-20T09:31:03Z</time>
      </trkpt>
      <trkpt lat="47.668625135" lon="11.730107618">
        <ele>998.5</ele>
        <time>2020-09-20T09:31:10Z</time>
      </trkpt>
      <trkpt lat="47.668435033" lon="11.730160844">
        <ele>995.1</ele>
        <time>2020-09-20T09:31:24Z</time>
      </trkpt>
      <trkpt lat="47.668278627" lon="11.730314735">
        <ele>992.2</ele>
        <time>2020-09-20T09:31:38Z</time>
      </trkpt>
      <trkpt lat="47.668085089" lon="11.730647497">
        <ele>988.9</ele>
        <time>2020-09-20T09:32:00Z</time>
      </trkpt>
      <trkpt lat="47.667888533" lon="11.731251078">
        <ele>983.1</ele>
        <time>2020-09-20T09:32:30Z</time>
      </trkpt>
      <trkpt lat="47.667812510" lon="11.731635556">
        <ele>980.2</ele>
        <time>2020-09-20T09:32:46Z</time>
      </trkpt>
      <trkpt lat="47.667594161" lon="11.732239137">
        <ele>974.4</ele>
        <time>2020-09-20T09:33:18Z</time>
      </trkpt>
      <trkpt lat="47.667592652" lon="11.732431669">
        <ele>972.0</ele>
        <time>2020-09-20T09:33:31Z</time>
      </trkpt>
      <trkpt lat="47.667619390" lon="11.732826205">
        <ele>968.7</ele>
        <time>2020-09-20T09:33:48Z</time>
      </trkpt>
      <trkpt lat="47.667688960" lon="11.733460128">
        <ele>962.4</ele>
        <time>2020-09-20T09:34:43Z</time>
      </trkpt>
      <trkpt lat="47.667688038" lon="11.733600860">
        <ele>959.5</ele>
        <time>2020-09-20T09:34:56Z</time>
      </trkpt>
      <trkpt lat="47.667670604" lon="11.733649559">
        <ele>961.9</ele>
        <time>2020-09-20T09:35:01Z</time>
      </trkpt>
      <trkpt lat="47.667716034" lon="11.733639585">
        <ele>960.5</ele>
        <time>2020-09-20T09:35:23Z</time>
      </trkpt>
      <trkpt lat="47.667729277" lon="11.734096650">
        <ele>958.6</ele>
        <time>2020-09-20T09:35:46Z</time>
      </trkpt>
      <trkpt lat="47.667766493" lon="11.734412564">
        <ele>956.2</ele>
        <time>2020-09-20T09:36:03Z</time>
      </trkpt>
      <trkpt lat="47.667792309" lon="11.734812213">
        <ele>951.4</ele>
        <time>2020-09-20T09:36:24Z</time>
      </trkpt>
      <trkpt lat="47.667839667" lon="11.735104071">
        <ele>948.0</ele>
        <time>2020-09-20T09:36:38Z</time>
      </trkpt>
      <trkpt lat="47.667862885" lon="11.735380758">
        <ele>944.6</ele>
        <time>2020-09-20T09:36:51Z</time>
      </trkpt>
      <trkpt lat="47.667970005" lon="11.735624420">
        <ele>941.3</ele>
        <time>2020-09-20T09:37:06Z</time>
      </trkpt>
      <trkpt lat="47.668120042" lon="11.735743526">
        <ele>938.4</ele>
        <time>2020-09-20T09:37:18Z</time>
      </trkpt>
      <trkpt lat="47.668230515" lon="11.735900017">
        <ele>936.0</ele>
        <time>2020-09-20T09:37:27Z</time>
      </trkpt>
      <trkpt lat="47.668294385" lon="11.736032115">
        <ele>934.1</ele>
        <time>2020-09-20T09:37:33Z</time>
      </trkpt>
      <trkpt lat="47.668347778" lon="11.736312071">
        <ele>930.7</ele>
        <time>2020-09-20T09:37:42Z</time>
      </trkpt>
      <trkpt lat="47.668473842" lon="11.736732172">
        <ele>924.5</ele>
        <time>2020-09-20T09:37:58Z</time>
      </trkpt>
      <trkpt lat="47.668488845" lon="11.736950437">
        <ele>921.6</ele>
        <time>2020-09-20T09:38:06Z</time>
      </trkpt>
      <trkpt lat="47.668442326" lon="11.737284958">
        <ele>916.8</ele>
        <time>2020-09-20T09:38:19Z</time>
      </trkpt>
      <trkpt lat="47.668301426" lon="11.737631382">
        <ele>911.5</ele>
        <time>2020-09-20T09:38:35Z</time>
      </trkpt>
      <trkpt lat="47.668141080" lon="11.737792399">
        <ele>908.1</ele>
        <time>2020-09-20T09:38:46Z</time>
      </trkpt>
      <trkpt lat="47.667719806" lon="11.737950482">
        <ele>901.9</ele>
        <time>2020-09-20T09:39:08Z</time>
      </trkpt>
      <trkpt lat="47.667562477" lon="11.738033714">
        <ele>899.0</ele>
        <time>2020-09-20T09:39:17Z</time>
      </trkpt>
      <trkpt lat="47.667419398" lon="11.738204286">
        <ele>895.6</ele>
        <time>2020-09-20T09:39:29Z</time>
      </trkpt>
      <trkpt lat="47.667252431" lon="11.738721114">
        <ele>889.4</ele>
        <time>2020-09-20T09:39:56Z</time>
      </trkpt>
      <trkpt lat="47.666974654" lon="11.739151273">
        <ele>883.1</ele>
        <time>2020-09-20T09:40:23Z</time>
      </trkpt>
      <trkpt lat="47.666757395" lon="11.740043107">
        <ele>870.6</ele>
        <time>2020-09-20T09:41:08Z</time>
      </trkpt>
      <trkpt lat="47.666618423" lon="11.740518277">
        <ele>863.9</ele>
        <time>2020-09-20T09:41:33Z</time>
      </trkpt>
      <trkpt lat="47.666502250" lon="11.740705026">
        <ele>861.0</ele>
        <time>2020-09-20T09:41:45Z</time>
      </trkpt>
      <trkpt lat="47.666179379" lon="11.740892194">
        <ele>854.3</ele>
        <time>2020-09-20T09:42:12Z</time>
      </trkpt>
      <trkpt lat="47.666157167" lon="11.740948018">
        <ele>853.8</ele>
        <time>2020-09-20T09:42:16Z</time>
      </trkpt>
      <trkpt lat="47.666088268" lon="11.741880588">
        <ele>844.7</ele>
        <time>2020-09-20T09:43:06Z</time>
      </trkpt>
      <trkpt lat="47.665989194" lon="11.742630936">
        <ele>836.5</ele>
        <time>2020-09-20T09:43:55Z</time>
      </trkpt>
      <trkpt lat="47.666115006" lon="11.743268129">
        <ele>833.6</ele>
        <time>2020-09-20T09:44:39Z</time>
      </trkpt>
      <trkpt lat="47.666190360" lon="11.743554119">
        <ele>833.1</ele>
        <time>2020-09-20T09:44:56Z</time>
      </trkpt>
      <trkpt lat="47.666301001" lon="11.743879756">
        <ele>832.6</ele>
        <time>2020-09-20T09:45:16Z</time>
      </trkpt>
      <trkpt lat="47.666370487" lon="11.744221570">
        <ele>832.6</ele>
        <time>2020-09-20T09:45:35Z</time>
      </trkpt>
      <trkpt lat="47.666409211" lon="11.744722305">
        <ele>831.2</ele>
        <time>2020-09-20T09:46:02Z</time>
      </trkpt>
      <trkpt lat="47.666439721" lon="11.745567284">
        <ele>829.3</ele>
        <time>2020-09-20T09:46:48Z</time>
      </trkpt>
      <trkpt lat="47.666309215" lon="11.746324087">
        <ele>827.8</ele>
        <time>2020-09-20T09:47:30Z</time>
      </trkpt>
      <trkpt lat="47.666174434" lon="11.746961447">
        <ele>825.4</ele>
        <time>2020-09-20T09:48:18Z</time>
      </trkpt>
      <trkpt lat="47.666012328" lon="11.746870419">
        <ele>825.0</ele>
        <time>2020-09-20T09:48:34Z</time>
      </trkpt>
      <trkpt lat="47.665805044" lon="11.746577723">
        <ele>824.0</ele>
        <time>2020-09-20T09:48:57Z</time>
      </trkpt>
      <trkpt lat="47.665289305" lon="11.745724697">
        <ele>823.5</ele>
        <time>2020-09-20T09:50:00Z</time>
      </trkpt>
      <trkpt lat="47.664494282" lon="11.744521475">
        <ele>821.6</ele>
        <time>2020-09-20T09:51:29Z</time>
      </trkpt>
      <trkpt lat="47.664295547" lon="11.744383844">
        <ele>822.5</ele>
        <time>2020-09-20T09:51:47Z</time>
      </trkpt>
      <trkpt lat="47.664052807" lon="11.744383592">
        <ele>822.1</ele>
        <time>2020-09-20T09:52:06Z</time>
      </trkpt>
      <trkpt lat="47.663698252" lon="11.744428184">
        <ele>821.6</ele>
        <time>2020-09-20T09:52:34Z</time>
      </trkpt>
      <trkpt lat="47.663407736" lon="11.744398177">
        <ele>822.1</ele>
        <time>2020-09-20T09:52:58Z</time>
      </trkpt>
      <trkpt lat="47.663158961" lon="11.744257025">
        <ele>822.1</ele>
        <time>2020-09-20T09:53:20Z</time>
      </trkpt>
      <trkpt lat="47.662859559" lon="11.744150156">
        <ele>822.1</ele>
        <time>2020-09-20T09:53:45Z</time>
      </trkpt>
      <trkpt lat="47.662197389" lon="11.744204555">
        <ele>822.5</ele>
        <time>2020-09-20T09:54:38Z</time>
      </trkpt>
      <trkpt lat="47.661914751" lon="11.744264653">
        <ele>822.5</ele>
        <time>2020-09-20T09:55:01Z</time>
      </trkpt>
      <trkpt lat="47.661680141" lon="11.744344113">
        <ele>823.0</ele>
        <time>2020-09-20T09:55:21Z</time>
      </trkpt>
      <trkpt lat="47.661172785" lon="11.744569922">
        <ele>823.5</ele>
        <time>2020-09-20T09:56:05Z</time>
      </trkpt>
      <trkpt lat="47.660640869" lon="11.744848788">
        <ele>823.5</ele>
        <time>2020-09-20T09:56:52Z</time>
      </trkpt>
      <trkpt lat="47.660395196" lon="11.744920956">
        <ele>823.5</ele>
        <time>2020-09-20T09:57:14Z</time>
      </trkpt>
      <trkpt lat="47.660354879" lon="11.744623231">
        <ele>823.0</ele>
        <time>2020-09-20T09:57:31Z</time>
      </trkpt>
      <trkpt lat="47.660347587" lon="11.744161304">
        <ele>823.0</ele>
        <time>2020-09-20T09:57:56Z</time>
      </trkpt>
      <trkpt lat="47.660317579" lon="11.743768528">
        <ele>823.0</ele>
        <time>2020-09-20T09:58:18Z</time>
      </trkpt>
      <trkpt lat="47.660264187" lon="11.743451860">
        <ele>823.0</ele>
        <time>2020-09-20T09:58:37Z</time>
      </trkpt>
      <trkpt lat="47.660231162" lon="11.743068388">
        <ele>823.0</ele>
        <time>2020-09-20T09:59:00Z</time>
      </trkpt>
      <trkpt lat="47.660132172" lon="11.742673433">
        <ele>822.5</ele>
        <time>2020-09-20T09:59:24Z</time>
      </trkpt>
      <trkpt lat="47.659979453" lon="11.742372522">
        <ele>822.5</ele>
        <time>2020-09-20T09:59:45Z</time>
      </trkpt>
      <trkpt lat="47.659742497" lon="11.742067086">
        <ele>822.5</ele>
        <time>2020-09-20T10:00:10Z</time>
      </trkpt>
      <trkpt lat="47.659582654" lon="11.741798026">
        <ele>823.0</ele>
        <time>2020-09-20T10:00:30Z</time>
      </trkpt>
      <trkpt lat="47.659399174" lon="11.741437353">
        <ele>823.5</ele>
        <time>2020-09-20T10:00:57Z</time>
      </trkpt>
      <trkpt lat="47.659349134" lon="11.741287485">
        <ele>823.5</ele>
        <time>2020-09-20T10:01:08Z</time>
      </trkpt>
      <trkpt lat="47.659201361" lon="11.740995543">
        <ele>824.0</ele>
        <time>2020-09-20T10:01:32Z</time>
      </trkpt>
      <trkpt lat="47.659138748" lon="11.740748612">
        <ele>825.4</ele>
        <time>2020-09-20T10:02:19Z</time>
      </trkpt>
    </trkseg>
  </trk>
</gpx>
